PWSweather.com
Personal Weather Stations
Station Observations
MODESTO21
East Modesto Ca, Modesto, CA 95355

East Modesto CaModesto, CA 95355

Lat: 37.658055, Lon: -120.94719199999997

Elevation: 88

Station Type: AcuRite 01036CADI

Latest ConditionsUpdated 7:34:01 AM PDT Tuesday, Jul 23, 2019
Currently Today's Max Today's Min Today's Average
Temperature 72.7°F22.6°C 78.8°F26.0°C 72.7°F22.6°C 74.9°F23.8°C
Dew Point 60.7°F15.9°C 61.6°F16.4°C 58.0°F14.4°C 59.8°F15.4°C
Winds 1.1 mph NNE1.8 kmh NNE 5.8 mph -9.3 kmh - - 1.7 mph 2.7 kmh
Wind Gusts 2.7 mph4.3 kmh 6.3 mph10.1 kmh - -
Humidity 66% 67% 54% 59%
Pressure 29.96 in1014.6 mb 29.96 in1014.6 mb 29.92 in1013.2 mb -
Hour Temp Dew Point Humidity Winds Wind Gusts Pressure Precip Precip Rate Daily Precip Total
07:34 AM 72.7°F22.6°C 60.7°F15.9°C 66% 1.1 mph NNE1.8 kmh NNE 2.7 mph4.3 kmh 29.96 in1014.6 mb 0.00 in0.0 mm 0.00 in0.0 mm 0.00 in0.0 mm
07:33 AM 72.7°F22.6°C 60.7°F15.9°C 66% 1.7 mph NNW2.7 kmh NNW 2.7 mph4.3 kmh 29.96 in1014.6 mb 0.00 in0.0 mm 0.00 in0.0 mm 0.00 in0.0 mm
07:32 AM 72.7°F22.6°C 60.7°F15.9°C 66% 2.2 mph W3.5 kmh W 2.7 mph4.3 kmh 29.96 in1014.6 mb 0.00 in0.0 mm 0.00 in0.0 mm 0.00 in0.0 mm
07:31 AM 72.7°F22.6°C 60.7°F15.9°C 66% 2.7 mph WNW4.3 kmh WNW 2.7 mph4.3 kmh 29.96 in1014.6 mb 0.00 in0.0 mm 0.00 in0.0 mm 0.00 in0.0 mm
07:30 AM 72.7°F22.6°C 60.7°F15.9°C 66% 2.2 mph NW3.5 kmh NW 2.7 mph4.3 kmh 29.96 in1014.6 mb 0.00 in0.0 mm 0.00 in0.0 mm 0.00 in0.0 mm
07:29 AM 72.7°F22.6°C 60.7°F15.9°C 66% 2.2 mph NNW3.5 kmh NNW 2.7 mph4.3 kmh 29.96 in1014.6 mb 0.00 in0.0 mm 0.00 in0.0 mm 0.00 in0.0 mm
07:28 AM 72.7°F22.6°C 60.7°F15.9°C 66% 2.2 mph WNW3.5 kmh WNW 2.7 mph4.3 kmh 29.96 in1014.6 mb 0.00 in0.0 mm 0.00 in0.0 mm 0.00 in0.0 mm
07:27 AM 72.7°F22.6°C 60.7°F15.9°C 66% 2.7 mph WNW4.3 kmh WNW 2.7 mph4.3 kmh 29.96 in1014.6 mb 0.00 in0.0 mm 0.00 in0.0 mm 0.00 in0.0 mm
07:26 AM 72.7°F22.6°C 60.7°F15.9°C 66% 2.7 mph WNW4.3 kmh WNW 2.7 mph4.3 kmh 29.96 in1014.6 mb 0.00 in0.0 mm 0.00 in0.0 mm 0.00 in0.0 mm
07:25 AM 72.7°F22.6°C 60.7°F15.9°C 66% 2.7 mph W4.3 kmh W 4.2 mph6.8 kmh 29.96 in1014.6 mb 0.00 in0.0 mm 0.00 in0.0 mm 0.00 in0.0 mm
07:24 AM 72.7°F22.6°C 61.1°F16.2°C 67% 1.7 mph NW2.7 kmh NW 4.2 mph6.8 kmh 29.96 in1014.6 mb 0.00 in0.0 mm 0.00 in0.0 mm 0.00 in0.0 mm
07:23 AM 72.7°F22.6°C 60.7°F15.9°C 66% 2.2 mph WNW3.5 kmh WNW 4.2 mph6.8 kmh 29.96 in1014.6 mb 0.00 in0.0 mm 0.00 in0.0 mm 0.00 in0.0 mm
07:22 AM 72.7°F22.6°C 60.7°F15.9°C 66% 2.2 mph W3.5 kmh W 4.2 mph6.8 kmh 29.96 in1014.6 mb 0.00 in0.0 mm 0.00 in0.0 mm 0.00 in0.0 mm
07:21 AM 72.9°F22.7°C 60.8°F16.0°C 66% 2.7 mph WNW4.3 kmh WNW 4.2 mph6.8 kmh 29.96 in1014.6 mb 0.00 in0.0 mm 0.00 in0.0 mm 0.00 in0.0 mm
07:20 AM 72.9°F22.7°C 60.8°F16.0°C 66% 2.7 mph WNW4.3 kmh WNW 4.2 mph6.8 kmh 29.96 in1014.6 mb 0.00 in0.0 mm 0.00 in0.0 mm 0.00 in0.0 mm
07:19 AM 72.9°F22.7°C 60.8°F16.0°C 66% Calm Calm 4.2 mph6.8 kmh 29.96 in1014.6 mb 0.00 in0.0 mm 0.00 in0.0 mm 0.00 in0.0 mm
07:18 AM 72.9°F22.7°C 60.8°F16.0°C 66% 2.2 mph NE3.5 kmh NE 4.2 mph6.8 kmh 29.96 in1014.6 mb 0.00 in0.0 mm 0.00 in0.0 mm 0.00 in0.0 mm
07:17 AM 72.9°F22.7°C 60.8°F16.0°C 66% 2.7 mph NW4.3 kmh NW 4.2 mph6.8 kmh 29.96 in1014.6 mb 0.00 in0.0 mm 0.00 in0.0 mm 0.00 in0.0 mm
07:16 AM 72.9°F22.7°C 60.8°F16.0°C 66% 3.2 mph WNW5.1 kmh WNW 4.2 mph6.8 kmh 29.96 in1014.6 mb 0.00 in0.0 mm 0.00 in0.0 mm 0.00 in0.0 mm
07:15 AM 72.9°F22.7°C 60.8°F16.0°C 66% 3.2 mph NW5.1 kmh NW 4.2 mph6.8 kmh 29.96 in1014.6 mb 0.00 in0.0 mm 0.00 in0.0 mm 0.00 in0.0 mm
07:14 AM 72.9°F22.7°C 60.8°F16.0°C 66% 3.2 mph NNW5.1 kmh NNW 4.2 mph6.8 kmh 29.96 in1014.6 mb 0.00 in0.0 mm 0.00 in0.0 mm 0.00 in0.0 mm
07:13 AM 72.9°F22.7°C 60.8°F16.0°C 66% 2.7 mph WNW4.3 kmh WNW 4.2 mph6.8 kmh 29.96 in1014.6 mb 0.00 in0.0 mm 0.00 in0.0 mm 0.00 in0.0 mm
07:12 AM 73.0°F22.8°C 61.0°F16.1°C 66% 4.2 mph W6.8 kmh W 4.2 mph6.8 kmh 29.96 in1014.6 mb 0.00 in0.0 mm 0.00 in0.0 mm 0.00 in0.0 mm
07:11 AM 73.0°F22.8°C 61.4°F16.3°C 67% 2.7 mph W4.3 kmh W 4.2 mph6.8 kmh 29.96 in1014.6 mb 0.00 in0.0 mm 0.00 in0.0 mm 0.00 in0.0 mm
07:10 AM 73.0°F22.8°C 61.0°F16.1°C 66% Calm Calm 4.2 mph6.8 kmh 29.96 in1014.6 mb 0.00 in0.0 mm 0.00 in0.0 mm 0.00 in0.0 mm
07:09 AM 73.0°F22.8°C 61.0°F16.1°C 66% 2.7 mph W4.3 kmh W 4.2 mph6.8 kmh 29.96 in1014.6 mb 0.00 in0.0 mm 0.00 in0.0 mm 0.00 in0.0 mm
07:08 AM 73.0°F22.8°C 61.0°F16.1°C 66% 3.2 mph WNW5.1 kmh WNW 4.2 mph6.8 kmh 29.96 in1014.6 mb 0.00 in0.0 mm 0.00 in0.0 mm 0.00 in0.0 mm
07:07 AM 73.0°F22.8°C 61.0°F16.1°C 66% 1.7 mph WNW2.7 kmh WNW 3.7 mph6.0 kmh 29.96 in1014.6 mb 0.00 in0.0 mm 0.00 in0.0 mm 0.00 in0.0 mm
07:06 AM 73.0°F22.8°C 61.0°F16.1°C 66% 2.7 mph WNW4.3 kmh WNW 3.7 mph6.0 kmh 29.96 in1014.6 mb 0.00 in0.0 mm 0.00 in0.0 mm 0.00 in0.0 mm
07:05 AM 73.2°F22.9°C 61.2°F16.2°C 66% 2.7 mph NW4.3 kmh NW 3.7 mph6.0 kmh 29.96 in1014.6 mb 0.00 in0.0 mm 0.00 in0.0 mm 0.00 in0.0 mm
07:04 AM 73.2°F22.9°C 61.2°F16.2°C 66% 2.7 mph NW4.3 kmh NW 3.7 mph6.0 kmh 29.96 in1014.6 mb 0.00 in0.0 mm 0.00 in0.0 mm 0.00 in0.0 mm
07:03 AM 73.2°F22.9°C 61.2°F16.2°C 66% 3.2 mph NW5.1 kmh NW 3.7 mph6.0 kmh 29.96 in1014.6 mb 0.00 in0.0 mm 0.00 in0.0 mm 0.00 in0.0 mm
07:02 AM 73.2°F22.9°C 61.2°F16.2°C 66% 2.2 mph N3.5 kmh N 3.7 mph6.0 kmh 29.96 in1014.6 mb 0.00 in0.0 mm 0.00 in0.0 mm 0.00 in0.0 mm
07:01 AM 73.2°F22.9°C 61.2°F16.2°C 66% 3.7 mph NNW6.0 kmh NNW 3.7 mph6.0 kmh 29.96 in1014.6 mb 0.00 in0.0 mm 0.00 in0.0 mm 0.00 in0.0 mm
07:00 AM 73.2°F22.9°C 61.2°F16.2°C 66% 2.7 mph W4.3 kmh W 3.2 mph5.1 kmh 29.96 in1014.6 mb 0.00 in0.0 mm 0.00 in0.0 mm 0.00 in0.0 mm
06:59 AM 73.2°F22.9°C 60.7°F15.9°C 65% 2.7 mph N4.3 kmh N 3.2 mph5.1 kmh 29.96 in1014.6 mb 0.00 in0.0 mm 0.00 in0.0 mm 0.00 in0.0 mm
06:58 AM 73.2°F22.9°C 60.7°F15.9°C 65% 1.7 mph NNW2.7 kmh NNW 3.2 mph5.1 kmh 29.96 in1014.6 mb 0.00 in0.0 mm 0.00 in0.0 mm 0.00 in0.0 mm
06:57 AM 73.4°F23.0°C 60.9°F16.1°C 65% 1.7 mph WNW2.7 kmh WNW 3.2 mph5.1 kmh 29.96 in1014.6 mb 0.00 in0.0 mm 0.00 in0.0 mm 0.00 in0.0 mm
06:56 AM 73.4°F23.0°C 60.9°F16.1°C 65% 2.2 mph WNW3.5 kmh WNW 3.2 mph5.1 kmh 29.96 in1014.6 mb 0.00 in0.0 mm 0.00 in0.0 mm 0.00 in0.0 mm
06:55 AM 73.4°F23.0°C 60.5°F15.8°C 64% 2.2 mph NW3.5 kmh NW 3.2 mph5.1 kmh 29.96 in1014.6 mb 0.00 in0.0 mm 0.00 in0.0 mm 0.00 in0.0 mm
06:54 AM 73.4°F23.0°C 60.5°F15.8°C 64% 3.2 mph NW5.1 kmh NW 3.2 mph5.1 kmh 29.96 in1014.6 mb 0.00 in0.0 mm 0.00 in0.0 mm 0.00 in0.0 mm
06:53 AM 73.4°F23.0°C 60.5°F15.8°C 64% 3.2 mph NW5.1 kmh NW 3.2 mph5.1 kmh 29.96 in1014.6 mb 0.00 in0.0 mm 0.00 in0.0 mm 0.00 in0.0 mm
06:52 AM 73.4°F23.0°C 60.5°F15.8°C 64% 2.7 mph WNW4.3 kmh WNW 3.2 mph5.1 kmh 29.96 in1014.6 mb 0.00 in0.0 mm 0.00 in0.0 mm 0.00 in0.0 mm
06:51 AM 73.4°F23.0°C 60.5°F15.8°C 64% 2.7 mph WNW4.3 kmh WNW 3.2 mph5.1 kmh 29.96 in1014.6 mb 0.00 in0.0 mm 0.00 in0.0 mm 0.00 in0.0 mm
06:50 AM 73.4°F23.0°C 60.0°F15.6°C 63% 3.2 mph WNW5.1 kmh WNW 3.2 mph5.1 kmh 29.96 in1014.6 mb 0.00 in0.0 mm 0.00 in0.0 mm 0.00 in0.0 mm
06:49 AM 73.4°F23.0°C 60.0°F15.6°C 63% 2.7 mph NNW4.3 kmh NNW 2.7 mph4.3 kmh 29.96 in1014.6 mb 0.00 in0.0 mm 0.00 in0.0 mm 0.00 in0.0 mm
06:48 AM 73.6°F23.1°C 60.2°F15.7°C 63% 1.7 mph NNW2.7 kmh NNW 2.7 mph4.3 kmh 29.96 in1014.6 mb 0.00 in0.0 mm 0.00 in0.0 mm 0.00 in0.0 mm
06:47 AM 73.6°F23.1°C 59.7°F15.4°C 62% 1.1 mph NW1.8 kmh NW 2.7 mph4.3 kmh 29.96 in1014.6 mb 0.00 in0.0 mm 0.00 in0.0 mm 0.00 in0.0 mm
06:41 AM 73.6°F23.1°C 59.7°F15.4°C 62% 2.2 mph NNW3.5 kmh NNW 2.7 mph4.3 kmh 29.96 in1014.6 mb 0.00 in0.0 mm 0.00 in0.0 mm 0.00 in0.0 mm
06:40 AM 73.6°F23.1°C 59.7°F15.4°C 62% 2.7 mph WNW4.3 kmh WNW 3.2 mph5.1 kmh 29.96 in1014.6 mb 0.00 in0.0 mm 0.00 in0.0 mm 0.00 in0.0 mm
06:39 AM 73.6°F23.1°C 59.7°F15.4°C 62% 2.7 mph NNW4.3 kmh NNW 3.2 mph5.1 kmh 29.96 in1014.6 mb 0.00 in0.0 mm 0.00 in0.0 mm 0.00 in0.0 mm
06:38 AM 73.8°F23.2°C 59.9°F15.5°C 62% 2.2 mph WNW3.5 kmh WNW 3.2 mph5.1 kmh 29.96 in1014.6 mb 0.00 in0.0 mm 0.00 in0.0 mm 0.00 in0.0 mm
06:37 AM 73.8°F23.2°C 59.9°F15.5°C 62% 1.7 mph WNW2.7 kmh WNW 3.2 mph5.1 kmh 29.96 in1014.6 mb 0.00 in0.0 mm 0.00 in0.0 mm 0.00 in0.0 mm
06:36 AM 73.8°F23.2°C 59.9°F15.5°C 62% 2.2 mph W3.5 kmh W 3.2 mph5.1 kmh 29.96 in1014.6 mb 0.00 in0.0 mm 0.00 in0.0 mm 0.00 in0.0 mm
06:35 AM 73.8°F23.2°C 59.9°F15.5°C 62% 2.2 mph W3.5 kmh W 3.2 mph5.1 kmh 29.96 in1014.6 mb 0.00 in0.0 mm 0.00 in0.0 mm 0.00 in0.0 mm
06:34 AM 73.8°F23.2°C 59.5°F15.3°C 61% 2.2 mph WNW3.5 kmh WNW 3.2 mph5.1 kmh 29.96 in1014.6 mb 0.00 in0.0 mm 0.00 in0.0 mm 0.00 in0.0 mm
06:33 AM 73.8°F23.2°C 59.5°F15.3°C 61% 2.2 mph WNW3.5 kmh WNW 3.2 mph5.1 kmh 29.96 in1014.6 mb 0.00 in0.0 mm 0.00 in0.0 mm 0.00 in0.0 mm
06:32 AM 73.8°F23.2°C 59.5°F15.3°C 61% 2.7 mph WNW4.3 kmh WNW 3.2 mph5.1 kmh 29.96 in1014.6 mb 0.00 in0.0 mm 0.00 in0.0 mm 0.00 in0.0 mm
06:31 AM 73.8°F23.2°C 59.5°F15.3°C 61% 3.2 mph W5.1 kmh W 3.2 mph5.1 kmh 29.96 in1014.6 mb 0.00 in0.0 mm 0.00 in0.0 mm 0.00 in0.0 mm
06:30 AM 73.8°F23.2°C 59.5°F15.3°C 61% 2.7 mph W4.3 kmh W 2.7 mph4.3 kmh 29.96 in1014.6 mb 0.00 in0.0 mm 0.00 in0.0 mm 0.00 in0.0 mm
06:29 AM 73.8°F23.2°C 59.5°F15.3°C 61% 2.7 mph W4.3 kmh W 2.7 mph4.3 kmh 29.96 in1014.6 mb 0.00 in0.0 mm 0.00 in0.0 mm 0.00 in0.0 mm
06:28 AM 73.8°F23.2°C 59.5°F15.3°C 61% 2.2 mph W3.5 kmh W 2.2 mph3.5 kmh 29.96 in1014.6 mb 0.00 in0.0 mm 0.00 in0.0 mm 0.00 in0.0 mm
06:27 AM 73.9°F23.3°C 59.6°F15.3°C 61% Calm Calm 1.7 mph2.7 kmh 29.96 in1014.6 mb 0.00 in0.0 mm 0.00 in0.0 mm 0.00 in0.0 mm
06:26 AM 73.9°F23.3°C 59.2°F15.1°C 60% Calm Calm 2.2 mph3.5 kmh 29.95 in1014.2 mb 0.00 in0.0 mm 0.00 in0.0 mm 0.00 in0.0 mm
06:25 AM 73.9°F23.3°C 59.2°F15.1°C 60% Calm Calm 2.2 mph3.5 kmh 29.95 in1014.2 mb 0.00 in0.0 mm 0.00 in0.0 mm 0.00 in0.0 mm
06:24 AM 73.9°F23.3°C 59.2°F15.1°C 60% Calm Calm 2.2 mph3.5 kmh 29.95 in1014.2 mb 0.00 in0.0 mm 0.00 in0.0 mm 0.00 in0.0 mm
06:23 AM 74.1°F23.4°C 59.3°F15.2°C 60% Calm Calm 2.2 mph3.5 kmh 29.95 in1014.2 mb 0.00 in0.0 mm 0.00 in0.0 mm 0.00 in0.0 mm
06:22 AM 74.1°F23.4°C 59.3°F15.2°C 60% Calm Calm 2.2 mph3.5 kmh 29.95 in1014.2 mb 0.00 in0.0 mm 0.00 in0.0 mm 0.00 in0.0 mm
06:21 AM 74.1°F23.4°C 59.3°F15.2°C 60% Calm Calm 2.7 mph4.3 kmh 29.95 in1014.2 mb 0.00 in0.0 mm 0.00 in0.0 mm 0.00 in0.0 mm
06:20 AM 74.1°F23.4°C 59.3°F15.2°C 60% Calm Calm 2.7 mph4.3 kmh 29.95 in1014.2 mb 0.00 in0.0 mm 0.00 in0.0 mm 0.00 in0.0 mm
06:19 AM 74.1°F23.4°C 59.3°F15.2°C 60% 1.7 mph NNW2.7 kmh NNW 2.7 mph4.3 kmh 29.95 in1014.2 mb 0.00 in0.0 mm 0.00 in0.0 mm 0.00 in0.0 mm
06:18 AM 74.1°F23.4°C 59.3°F15.2°C 60% 1.7 mph WNW2.7 kmh WNW 2.7 mph4.3 kmh 29.95 in1014.2 mb 0.00 in0.0 mm 0.00 in0.0 mm 0.00 in0.0 mm
06:17 AM 74.1°F23.4°C 59.3°F15.2°C 60% 1.7 mph WNW2.7 kmh WNW 3.7 mph6.0 kmh 29.95 in1014.2 mb 0.00 in0.0 mm 0.00 in0.0 mm 0.00 in0.0 mm
06:16 AM 74.1°F23.4°C 59.3°F15.2°C 60% 2.2 mph W3.5 kmh W 3.7 mph6.0 kmh 29.95 in1014.2 mb 0.00 in0.0 mm 0.00 in0.0 mm 0.00 in0.0 mm
06:15 AM 74.1°F23.4°C 59.3°F15.2°C 60% 2.2 mph WNW3.5 kmh WNW 3.7 mph6.0 kmh 29.95 in1014.2 mb 0.00 in0.0 mm 0.00 in0.0 mm 0.00 in0.0 mm
06:14 AM 74.1°F23.4°C 59.3°F15.2°C 60% Calm Calm 3.7 mph6.0 kmh 29.94 in1013.9 mb 0.00 in0.0 mm 0.00 in0.0 mm 0.00 in0.0 mm
06:13 AM 74.3°F23.5°C 60.0°F15.6°C 61% Calm Calm 3.7 mph6.0 kmh 29.94 in1013.9 mb 0.00 in0.0 mm 0.00 in0.0 mm 0.00 in0.0 mm
06:12 AM 74.3°F23.5°C 60.0°F15.6°C 61% Calm Calm 3.7 mph6.0 kmh 29.94 in1013.9 mb 0.00 in0.0 mm 0.00 in0.0 mm 0.00 in0.0 mm
06:11 AM 74.3°F23.5°C 59.0°F15.0°C 59% 2.7 mph W4.3 kmh W 5.3 mph8.5 kmh 29.94 in1013.9 mb 0.00 in0.0 mm 0.00 in0.0 mm 0.00 in0.0 mm
06:10 AM 74.3°F23.5°C 59.0°F15.0°C 59% 2.7 mph WNW4.3 kmh WNW 5.3 mph8.5 kmh 29.94 in1013.9 mb 0.00 in0.0 mm 0.00 in0.0 mm 0.00 in0.0 mm
06:09 AM 74.3°F23.5°C 59.0°F15.0°C 59% 2.7 mph W4.3 kmh W 5.3 mph8.5 kmh 29.94 in1013.9 mb 0.00 in0.0 mm 0.00 in0.0 mm 0.00 in0.0 mm
06:08 AM 74.3°F23.5°C 59.0°F15.0°C 59% 2.2 mph W3.5 kmh W 5.3 mph8.5 kmh 29.94 in1013.9 mb 0.00 in0.0 mm 0.00 in0.0 mm 0.00 in0.0 mm
06:07 AM 74.3°F23.5°C 59.0°F15.0°C 59% 3.7 mph WNW6.0 kmh WNW 5.3 mph8.5 kmh 29.94 in1013.9 mb 0.00 in0.0 mm 0.00 in0.0 mm 0.00 in0.0 mm
06:06 AM 74.3°F23.5°C 59.0°F15.0°C 59% 3.2 mph W5.1 kmh W 5.3 mph8.5 kmh 29.94 in1013.9 mb 0.00 in0.0 mm 0.00 in0.0 mm 0.00 in0.0 mm
06:05 AM 74.3°F23.5°C 59.0°F15.0°C 59% 3.2 mph WNW5.1 kmh WNW 5.3 mph8.5 kmh 29.94 in1013.9 mb 0.00 in0.0 mm 0.00 in0.0 mm 0.00 in0.0 mm
06:04 AM 74.3°F23.5°C 59.0°F15.0°C 59% 3.7 mph WNW6.0 kmh WNW 5.3 mph8.5 kmh 29.94 in1013.9 mb 0.00 in0.0 mm 0.00 in0.0 mm 0.00 in0.0 mm
06:03 AM 74.3°F23.5°C 59.0°F15.0°C 59% 2.7 mph W4.3 kmh W 5.3 mph8.5 kmh 29.94 in1013.9 mb 0.00 in0.0 mm 0.00 in0.0 mm 0.00 in0.0 mm
06:02 AM 74.3°F23.5°C 59.0°F15.0°C 59% 3.2 mph WNW5.1 kmh WNW 5.3 mph8.5 kmh 29.94 in1013.9 mb 0.00 in0.0 mm 0.00 in0.0 mm 0.00 in0.0 mm
06:01 AM 74.3°F23.5°C 59.0°F15.0°C 59% 3.2 mph W5.1 kmh W 4.2 mph6.8 kmh 29.94 in1013.9 mb 0.00 in0.0 mm 0.00 in0.0 mm 0.00 in0.0 mm
06:00 AM 74.3°F23.5°C 59.5°F15.3°C 60% 2.2 mph WNW3.5 kmh WNW 2.7 mph4.3 kmh 29.94 in1013.9 mb 0.00 in0.0 mm 0.00 in0.0 mm 0.00 in0.0 mm
05:59 AM 74.3°F23.5°C 59.5°F15.3°C 60% 2.7 mph W4.3 kmh W 2.7 mph4.3 kmh 29.94 in1013.9 mb 0.00 in0.0 mm 0.00 in0.0 mm 0.00 in0.0 mm
05:58 AM 74.3°F23.5°C 59.5°F15.3°C 60% 1.7 mph WNW2.7 kmh WNW 2.7 mph4.3 kmh 29.94 in1013.9 mb 0.00 in0.0 mm 0.00 in0.0 mm 0.00 in0.0 mm
05:57 AM 74.3°F23.5°C 59.5°F15.3°C 60% 1.7 mph NW2.7 kmh NW 2.7 mph4.3 kmh 29.94 in1013.9 mb 0.00 in0.0 mm 0.00 in0.0 mm 0.00 in0.0 mm
05:56 AM 74.3°F23.5°C 59.5°F15.3°C 60% 1.7 mph NW2.7 kmh NW 2.7 mph4.3 kmh 29.94 in1013.9 mb 0.00 in0.0 mm 0.00 in0.0 mm 0.00 in0.0 mm
05:55 AM 74.3°F23.5°C 59.5°F15.3°C 60% 1.7 mph NW2.7 kmh NW 2.7 mph4.3 kmh 29.94 in1013.9 mb 0.00 in0.0 mm 0.00 in0.0 mm 0.00 in0.0 mm
05:54 AM 74.3°F23.5°C 59.5°F15.3°C 60% 2.7 mph WNW4.3 kmh WNW 2.7 mph4.3 kmh 29.94 in1013.9 mb 0.00 in0.0 mm 0.00 in0.0 mm 0.00 in0.0 mm
05:53 AM 74.3°F23.5°C 59.0°F15.0°C 59% 2.2 mph NW3.5 kmh NW 2.7 mph4.3 kmh 29.94 in1013.9 mb 0.00 in0.0 mm 0.00 in0.0 mm 0.00 in0.0 mm
05:52 AM 74.3°F23.5°C 59.0°F15.0°C 59% 2.7 mph NNW4.3 kmh NNW 2.7 mph4.3 kmh 29.94 in1013.9 mb 0.00 in0.0 mm 0.00 in0.0 mm 0.00 in0.0 mm
05:51 AM 74.3°F23.5°C 59.0°F15.0°C 59% 2.2 mph NNW3.5 kmh NNW 3.2 mph5.1 kmh 29.94 in1013.9 mb 0.00 in0.0 mm 0.00 in0.0 mm 0.00 in0.0 mm
05:50 AM 74.3°F23.5°C 59.0°F15.0°C 59% 1.7 mph NW2.7 kmh NW 3.2 mph5.1 kmh 29.94 in1013.9 mb 0.00 in0.0 mm 0.00 in0.0 mm 0.00 in0.0 mm
05:46 AM 74.3°F23.5°C 59.5°F15.3°C 60% Calm Calm 3.2 mph5.1 kmh 29.95 in1014.2 mb 0.00 in0.0 mm 0.00 in0.0 mm 0.00 in0.0 mm
05:45 AM 74.3°F23.5°C 59.5°F15.3°C 60% 1.7 mph WNW2.7 kmh WNW 3.2 mph5.1 kmh 29.95 in1014.2 mb 0.00 in0.0 mm 0.00 in0.0 mm 0.00 in0.0 mm
05:44 AM 74.3°F23.5°C 59.5°F15.3°C 60% 2.2 mph NNW3.5 kmh NNW 3.7 mph6.0 kmh 29.95 in1014.2 mb 0.00 in0.0 mm 0.00 in0.0 mm 0.00 in0.0 mm
05:43 AM 74.3°F23.5°C 59.5°F15.3°C 60% 1.7 mph NW2.7 kmh NW 3.7 mph6.0 kmh 29.95 in1014.2 mb 0.00 in0.0 mm 0.00 in0.0 mm 0.00 in0.0 mm
05:42 AM 74.3°F23.5°C 59.5°F15.3°C 60% 2.7 mph WNW4.3 kmh WNW 3.7 mph6.0 kmh 29.95 in1014.2 mb 0.00 in0.0 mm 0.00 in0.0 mm 0.00 in0.0 mm
05:41 AM 74.3°F23.5°C 59.5°F15.3°C 60% 3.2 mph NW5.1 kmh NW 3.7 mph6.0 kmh 29.95 in1014.2 mb 0.00 in0.0 mm 0.00 in0.0 mm 0.00 in0.0 mm
05:40 AM 74.3°F23.5°C 59.5°F15.3°C 60% 2.2 mph NW3.5 kmh NW 4.2 mph6.8 kmh 29.95 in1014.2 mb 0.00 in0.0 mm 0.00 in0.0 mm 0.00 in0.0 mm
05:39 AM 74.3°F23.5°C 59.5°F15.3°C 60% 2.2 mph WNW3.5 kmh WNW 4.2 mph6.8 kmh 29.95 in1014.2 mb 0.00 in0.0 mm 0.00 in0.0 mm 0.00 in0.0 mm
05:38 AM 74.3°F23.5°C 59.5°F15.3°C 60% 1.7 mph WNW2.7 kmh WNW 4.2 mph6.8 kmh 29.94 in1013.9 mb 0.00 in0.0 mm 0.00 in0.0 mm 0.00 in0.0 mm
05:37 AM 74.3°F23.5°C 59.5°F15.3°C 60% 2.7 mph WNW4.3 kmh WNW 4.2 mph6.8 kmh 29.94 in1013.9 mb 0.00 in0.0 mm 0.00 in0.0 mm 0.00 in0.0 mm
05:36 AM 74.3°F23.5°C 59.0°F15.0°C 59% 2.7 mph WNW4.3 kmh WNW 4.2 mph6.8 kmh 29.94 in1013.9 mb 0.00 in0.0 mm 0.00 in0.0 mm 0.00 in0.0 mm
05:35 AM 74.3°F23.5°C 59.0°F15.0°C 59% 2.2 mph NW3.5 kmh NW 4.2 mph6.8 kmh 29.94 in1013.9 mb 0.00 in0.0 mm 0.00 in0.0 mm 0.00 in0.0 mm
05:34 AM 74.1°F23.4°C 58.9°F14.9°C 59% 2.7 mph WNW4.3 kmh WNW 4.2 mph6.8 kmh 29.94 in1013.9 mb 0.00 in0.0 mm 0.00 in0.0 mm 0.00 in0.0 mm
05:33 AM 74.1°F23.4°C 58.9°F14.9°C 59% 2.7 mph W4.3 kmh W 4.2 mph6.8 kmh 29.94 in1013.9 mb 0.00 in0.0 mm 0.00 in0.0 mm 0.00 in0.0 mm
05:32 AM 74.1°F23.4°C 58.9°F14.9°C 59% 2.7 mph W4.3 kmh W 4.2 mph6.8 kmh 29.94 in1013.9 mb 0.00 in0.0 mm 0.00 in0.0 mm 0.00 in0.0 mm
05:31 AM 74.1°F23.4°C 58.9°F14.9°C 59% 2.7 mph WNW4.3 kmh WNW 4.2 mph6.8 kmh 29.94 in1013.9 mb 0.00 in0.0 mm 0.00 in0.0 mm 0.00 in0.0 mm
05:30 AM 74.1°F23.4°C 58.9°F14.9°C 59% 2.7 mph W4.3 kmh W 3.7 mph6.0 kmh 29.94 in1013.9 mb 0.00 in0.0 mm 0.00 in0.0 mm 0.00 in0.0 mm
05:29 AM 74.1°F23.4°C 58.9°F14.9°C 59% 3.2 mph WNW5.1 kmh WNW 3.7 mph6.0 kmh 29.94 in1013.9 mb 0.00 in0.0 mm 0.00 in0.0 mm 0.00 in0.0 mm
05:28 AM 74.1°F23.4°C 59.3°F15.2°C 60% 2.2 mph WNW3.5 kmh WNW 3.2 mph5.1 kmh 29.94 in1013.9 mb 0.00 in0.0 mm 0.00 in0.0 mm 0.00 in0.0 mm
05:27 AM 73.9°F23.3°C 59.2°F15.1°C 60% 3.2 mph WNW5.1 kmh WNW 3.2 mph5.1 kmh 29.94 in1013.9 mb 0.00 in0.0 mm 0.00 in0.0 mm 0.00 in0.0 mm
05:26 AM 73.9°F23.3°C 59.2°F15.1°C 60% 2.7 mph WNW4.3 kmh WNW 2.7 mph4.3 kmh 29.94 in1013.9 mb 0.00 in0.0 mm 0.00 in0.0 mm 0.00 in0.0 mm
05:25 AM 73.9°F23.3°C 59.2°F15.1°C 60% 2.2 mph NW3.5 kmh NW 2.7 mph4.3 kmh 29.94 in1013.9 mb 0.00 in0.0 mm 0.00 in0.0 mm 0.00 in0.0 mm
05:24 AM 73.8°F23.2°C 59.0°F15.0°C 60% 2.2 mph W3.5 kmh W 2.2 mph3.5 kmh 29.94 in1013.9 mb 0.00 in0.0 mm 0.00 in0.0 mm 0.00 in0.0 mm
05:23 AM 73.8°F23.2°C 59.0°F15.0°C 60% 1.7 mph WNW2.7 kmh WNW 2.2 mph3.5 kmh 29.94 in1013.9 mb 0.00 in0.0 mm 0.00 in0.0 mm 0.00 in0.0 mm
05:22 AM 73.8°F23.2°C 59.0°F15.0°C 60% 1.7 mph NW2.7 kmh NW 2.2 mph3.5 kmh 29.94 in1013.9 mb 0.00 in0.0 mm 0.00 in0.0 mm 0.00 in0.0 mm
05:21 AM 73.8°F23.2°C 59.0°F15.0°C 60% 1.7 mph WNW2.7 kmh WNW 1.7 mph2.7 kmh 29.94 in1013.9 mb 0.00 in0.0 mm 0.00 in0.0 mm 0.00 in0.0 mm
05:20 AM 73.8°F23.2°C 59.5°F15.3°C 61% 1.1 mph WNW1.8 kmh WNW 1.7 mph2.7 kmh 29.94 in1013.9 mb 0.00 in0.0 mm 0.00 in0.0 mm 0.00 in0.0 mm
05:19 AM 73.8°F23.2°C 59.0°F15.0°C 60% Calm Calm 1.7 mph2.7 kmh 29.94 in1013.9 mb 0.00 in0.0 mm 0.00 in0.0 mm 0.00 in0.0 mm
05:18 AM 73.8°F23.2°C 59.0°F15.0°C 60% Calm Calm 2.7 mph4.3 kmh 29.94 in1013.9 mb 0.00 in0.0 mm 0.00 in0.0 mm 0.00 in0.0 mm
05:17 AM 73.8°F23.2°C 59.0°F15.0°C 60% Calm Calm 2.7 mph4.3 kmh 29.94 in1013.9 mb 0.00 in0.0 mm 0.00 in0.0 mm 0.00 in0.0 mm
05:16 AM 73.8°F23.2°C 59.0°F15.0°C 60% Calm Calm 2.7 mph4.3 kmh 29.94 in1013.9 mb 0.00 in0.0 mm 0.00 in0.0 mm 0.00 in0.0 mm
05:15 AM 73.8°F23.2°C 59.0°F15.0°C 60% Calm Calm 2.7 mph4.3 kmh 29.94 in1013.9 mb 0.00 in0.0 mm 0.00 in0.0 mm 0.00 in0.0 mm
05:14 AM 73.9°F23.3°C 59.2°F15.1°C 60% Calm Calm 2.7 mph4.3 kmh 29.94 in1013.9 mb 0.00 in0.0 mm 0.00 in0.0 mm 0.00 in0.0 mm
05:13 AM 73.9°F23.3°C 58.7°F14.8°C 59% Calm Calm 2.7 mph4.3 kmh 29.93 in1013.5 mb 0.00 in0.0 mm 0.00 in0.0 mm 0.00 in0.0 mm
05:12 AM 73.9°F23.3°C 58.7°F14.8°C 59% Calm Calm 2.7 mph4.3 kmh 29.93 in1013.5 mb 0.00 in0.0 mm 0.00 in0.0 mm 0.00 in0.0 mm
05:11 AM 73.9°F23.3°C 58.7°F14.8°C 59% Calm Calm 2.7 mph4.3 kmh 29.93 in1013.5 mb 0.00 in0.0 mm 0.00 in0.0 mm 0.00 in0.0 mm
05:10 AM 73.9°F23.3°C 58.7°F14.8°C 59% Calm Calm 2.7 mph4.3 kmh 29.93 in1013.5 mb 0.00 in0.0 mm 0.00 in0.0 mm 0.00 in0.0 mm
05:09 AM 73.9°F23.3°C 58.7°F14.8°C 59% 1.7 mph WNW2.7 kmh WNW 2.7 mph4.3 kmh 29.93 in1013.5 mb 0.00 in0.0 mm 0.00 in0.0 mm 0.00 in0.0 mm
05:08 AM 73.9°F23.3°C 58.7°F14.8°C 59% 1.1 mph W1.8 kmh W 2.7 mph4.3 kmh 29.93 in1013.5 mb 0.00 in0.0 mm 0.00 in0.0 mm 0.00 in0.0 mm
05:07 AM 73.8°F23.2°C 59.0°F15.0°C 60% 2.2 mph W3.5 kmh W 2.7 mph4.3 kmh 29.93 in1013.5 mb 0.00 in0.0 mm 0.00 in0.0 mm 0.00 in0.0 mm
05:06 AM 73.8°F23.2°C 59.0°F15.0°C 60% 2.2 mph WNW3.5 kmh WNW 2.2 mph3.5 kmh 29.93 in1013.5 mb 0.00 in0.0 mm 0.00 in0.0 mm 0.00 in0.0 mm
05:05 AM 73.6°F23.1°C 58.8°F14.9°C 60% Calm Calm 2.2 mph3.5 kmh 29.93 in1013.5 mb 0.00 in0.0 mm 0.00 in0.0 mm 0.00 in0.0 mm
05:04 AM 73.6°F23.1°C 58.8°F14.9°C 60% Calm Calm 2.2 mph3.5 kmh 29.93 in1013.5 mb 0.00 in0.0 mm 0.00 in0.0 mm 0.00 in0.0 mm
05:03 AM 73.6°F23.1°C 58.8°F14.9°C 60% Calm Calm 2.2 mph3.5 kmh 29.93 in1013.5 mb 0.00 in0.0 mm 0.00 in0.0 mm 0.00 in0.0 mm
05:02 AM 73.6°F23.1°C 58.8°F14.9°C 60% Calm Calm 2.2 mph3.5 kmh 29.94 in1013.9 mb 0.00 in0.0 mm 0.00 in0.0 mm 0.00 in0.0 mm
05:01 AM 73.6°F23.1°C 58.8°F14.9°C 60% 1.7 mph NNW2.7 kmh NNW 2.2 mph3.5 kmh 29.94 in1013.9 mb 0.00 in0.0 mm 0.00 in0.0 mm 0.00 in0.0 mm
05:00 AM 73.6°F23.1°C 58.8°F14.9°C 60% Calm Calm 2.2 mph3.5 kmh 29.94 in1013.9 mb 0.00 in0.0 mm 0.00 in0.0 mm 0.00 in0.0 mm
04:59 AM 73.8°F23.2°C 59.0°F15.0°C 60% 1.1 mph NW1.8 kmh NW 2.2 mph3.5 kmh 29.94 in1013.9 mb 0.00 in0.0 mm 0.00 in0.0 mm 0.00 in0.0 mm
04:58 AM 73.8°F23.2°C 59.0°F15.0°C 60% 1.1 mph NNW1.8 kmh NNW 2.2 mph3.5 kmh 29.94 in1013.9 mb 0.00 in0.0 mm 0.00 in0.0 mm 0.00 in0.0 mm
04:57 AM 73.6°F23.1°C 58.8°F14.9°C 60% Calm Calm -- 29.94 in1013.9 mb 0.00 in0.0 mm 0.00 in0.0 mm 0.00 in0.0 mm
04:56 AM 73.4°F23.0°C 58.7°F14.8°C 60% Calm Calm -- 29.94 in1013.9 mb 0.00 in0.0 mm 0.00 in0.0 mm 0.00 in0.0 mm
04:55 AM 73.4°F23.0°C 58.7°F14.8°C 60% Calm Calm -- 29.94 in1013.9 mb 0.00 in0.0 mm 0.00 in0.0 mm 0.00 in0.0 mm
04:54 AM 73.6°F23.1°C 58.8°F14.9°C 60% Calm Calm -- 29.94 in1013.9 mb 0.00 in0.0 mm 0.00 in0.0 mm 0.00 in0.0 mm
04:53 AM 73.6°F23.1°C 58.8°F14.9°C 60% Calm Calm -- 29.94 in1013.9 mb 0.00 in0.0 mm 0.00 in0.0 mm 0.00 in0.0 mm
04:52 AM 73.6°F23.1°C 58.8°F14.9°C 60% Calm Calm -- 29.94 in1013.9 mb 0.00 in0.0 mm 0.00 in0.0 mm 0.00 in0.0 mm
04:51 AM 73.6°F23.1°C 58.8°F14.9°C 60% Calm Calm -- 29.94 in1013.9 mb 0.00 in0.0 mm 0.00 in0.0 mm 0.00 in0.0 mm
04:50 AM 73.6°F23.1°C 58.8°F14.9°C 60% Calm Calm -- 29.94 in1013.9 mb 0.00 in0.0 mm 0.00 in0.0 mm 0.00 in0.0 mm
04:49 AM 73.6°F23.1°C 58.8°F14.9°C 60% Calm Calm -- 29.94 in1013.9 mb 0.00 in0.0 mm 0.00 in0.0 mm 0.00 in0.0 mm
04:48 AM 73.6°F23.1°C 58.4°F14.7°C 59% Calm Calm -- 29.94 in1013.9 mb 0.00 in0.0 mm 0.00 in0.0 mm 0.00 in0.0 mm
04:47 AM 73.6°F23.1°C 58.4°F14.7°C 59% Calm Calm -- 29.94 in1013.9 mb 0.00 in0.0 mm 0.00 in0.0 mm 0.00 in0.0 mm
04:46 AM 73.6°F23.1°C 58.4°F14.7°C 59% Calm Calm -- 29.94 in1013.9 mb 0.00 in0.0 mm 0.00 in0.0 mm 0.00 in0.0 mm
04:45 AM 73.6°F23.1°C 58.4°F14.7°C 59% Calm Calm -- 29.94 in1013.9 mb 0.00 in0.0 mm 0.00 in0.0 mm 0.00 in0.0 mm
04:44 AM 73.6°F23.1°C 58.4°F14.7°C 59% Calm Calm -- 29.94 in1013.9 mb 0.00 in0.0 mm 0.00 in0.0 mm 0.00 in0.0 mm
04:43 AM 73.6°F23.1°C 58.4°F14.7°C 59% Calm Calm -- 29.94 in1013.9 mb 0.00 in0.0 mm 0.00 in0.0 mm 0.00 in0.0 mm
04:42 AM 73.6°F23.1°C 58.4°F14.7°C 59% Calm Calm -- 29.94 in1013.9 mb 0.00 in0.0 mm 0.00 in0.0 mm 0.00 in0.0 mm
04:41 AM 73.8°F23.2°C 58.5°F14.7°C 59% Calm Calm -- 29.94 in1013.9 mb 0.00 in0.0 mm 0.00 in0.0 mm 0.00 in0.0 mm
04:40 AM 73.8°F23.2°C 58.5°F14.7°C 59% Calm Calm -- 29.94 in1013.9 mb 0.00 in0.0 mm 0.00 in0.0 mm 0.00 in0.0 mm
04:39 AM 73.8°F23.2°C 58.5°F14.7°C 59% Calm Calm -- 29.93 in1013.5 mb 0.00 in0.0 mm 0.00 in0.0 mm 0.00 in0.0 mm
04:38 AM 73.8°F23.2°C 58.5°F14.7°C 59% Calm Calm -- 29.93 in1013.5 mb 0.00 in0.0 mm 0.00 in0.0 mm 0.00 in0.0 mm
04:37 AM 73.8°F23.2°C 58.5°F14.7°C 59% Calm Calm -- 29.93 in1013.5 mb 0.00 in0.0 mm 0.00 in0.0 mm 0.00 in0.0 mm
04:36 AM 73.8°F23.2°C 58.5°F14.7°C 59% Calm Calm -- 29.93 in1013.5 mb 0.00 in0.0 mm 0.00 in0.0 mm 0.00 in0.0 mm
04:35 AM 73.8°F23.2°C 58.5°F14.7°C 59% Calm Calm -- 29.93 in1013.5 mb 0.00 in0.0 mm 0.00 in0.0 mm 0.00 in0.0 mm
04:34 AM 73.8°F23.2°C 58.5°F14.7°C 59% Calm Calm -- 29.93 in1013.5 mb 0.00 in0.0 mm 0.00 in0.0 mm 0.00 in0.0 mm
04:33 AM 73.8°F23.2°C 58.5°F14.7°C 59% Calm Calm -- 29.93 in1013.5 mb 0.00 in0.0 mm 0.00 in0.0 mm 0.00 in0.0 mm
04:32 AM 73.8°F23.2°C 58.5°F14.7°C 59% Calm Calm -- 29.93 in1013.5 mb 0.00 in0.0 mm 0.00 in0.0 mm 0.00 in0.0 mm
04:31 AM 73.8°F23.2°C 58.5°F14.7°C 59% Calm Calm -- 29.93 in1013.5 mb 0.00 in0.0 mm 0.00 in0.0 mm 0.00 in0.0 mm
04:30 AM 73.8°F23.2°C 58.5°F14.7°C 59% Calm Calm -- 29.93 in1013.5 mb 0.00 in0.0 mm 0.00 in0.0 mm 0.00 in0.0 mm
04:29 AM 73.8°F23.2°C 58.0°F14.4°C 58% Calm Calm -- 29.93 in1013.5 mb 0.00 in0.0 mm 0.00 in0.0 mm 0.00 in0.0 mm
04:28 AM 73.8°F23.2°C 58.0°F14.4°C 58% Calm Calm -- 29.93 in1013.5 mb 0.00 in0.0 mm 0.00 in0.0 mm 0.00 in0.0 mm
04:27 AM 73.9°F23.3°C 58.2°F14.6°C 58% Calm Calm -- 29.93 in1013.5 mb 0.00 in0.0 mm 0.00 in0.0 mm 0.00 in0.0 mm
04:26 AM 73.9°F23.3°C 58.2°F14.6°C 58% Calm Calm -- 29.93 in1013.5 mb 0.00 in0.0 mm 0.00 in0.0 mm 0.00 in0.0 mm
04:25 AM 73.9°F23.3°C 58.2°F14.6°C 58% Calm Calm -- 29.93 in1013.5 mb 0.00 in0.0 mm 0.00 in0.0 mm 0.00 in0.0 mm
04:24 AM 73.9°F23.3°C 58.2°F14.6°C 58% Calm Calm -- 29.93 in1013.5 mb 0.00 in0.0 mm 0.00 in0.0 mm 0.00 in0.0 mm
04:23 AM 73.9°F23.3°C 58.2°F14.6°C 58% Calm Calm -- 29.93 in1013.5 mb 0.00 in0.0 mm 0.00 in0.0 mm 0.00 in0.0 mm
04:15 AM 74.1°F23.4°C 58.4°F14.7°C 58% Calm Calm 2.7 mph4.3 kmh 29.93 in1013.5 mb 0.00 in0.0 mm 0.00 in0.0 mm 0.00 in0.0 mm
04:14 AM 74.3°F23.5°C 58.6°F14.8°C 58% Calm Calm 3.7 mph6.0 kmh 29.93 in1013.5 mb 0.00 in0.0 mm 0.00 in0.0 mm 0.00 in0.0 mm
04:13 AM 74.3°F23.5°C 58.6°F14.8°C 58% Calm Calm 3.7 mph6.0 kmh 29.93 in1013.5 mb 0.00 in0.0 mm 0.00 in0.0 mm 0.00 in0.0 mm
04:12 AM 74.3°F23.5°C 58.6°F14.8°C 58% Calm Calm 3.7 mph6.0 kmh 29.93 in1013.5 mb 0.00 in0.0 mm 0.00 in0.0 mm 0.00 in0.0 mm
04:11 AM 74.3°F23.5°C 58.6°F14.8°C 58% 1.7 mph NW2.7 kmh NW 3.7 mph6.0 kmh 29.93 in1013.5 mb 0.00 in0.0 mm 0.00 in0.0 mm 0.00 in0.0 mm
04:10 AM 74.3°F23.5°C 58.6°F14.8°C 58% 2.2 mph NW3.5 kmh NW 3.7 mph6.0 kmh 29.93 in1013.5 mb 0.00 in0.0 mm 0.00 in0.0 mm 0.00 in0.0 mm
04:09 AM 74.3°F23.5°C 58.6°F14.8°C 58% 1.7 mph NW2.7 kmh NW 3.7 mph6.0 kmh 29.93 in1013.5 mb 0.00 in0.0 mm 0.00 in0.0 mm 0.00 in0.0 mm
04:08 AM 74.5°F23.6°C 58.7°F14.8°C 58% 1.7 mph NW2.7 kmh NW 3.7 mph6.0 kmh 29.93 in1013.5 mb 0.00 in0.0 mm 0.00 in0.0 mm 0.00 in0.0 mm
04:07 AM 74.5°F23.6°C 58.7°F14.8°C 58% 1.7 mph NNE2.7 kmh NNE 3.7 mph6.0 kmh 29.93 in1013.5 mb 0.00 in0.0 mm 0.00 in0.0 mm 0.00 in0.0 mm
04:06 AM 74.3°F23.5°C 58.6°F14.8°C 58% 2.2 mph WNW3.5 kmh WNW 3.7 mph6.0 kmh 29.93 in1013.5 mb 0.00 in0.0 mm 0.00 in0.0 mm 0.00 in0.0 mm
04:05 AM 74.3°F23.5°C 58.6°F14.8°C 58% 3.7 mph W6.0 kmh W 3.7 mph6.0 kmh 29.93 in1013.5 mb 0.00 in0.0 mm 0.00 in0.0 mm 0.00 in0.0 mm
04:04 AM 74.3°F23.5°C 58.6°F14.8°C 58% 2.2 mph WNW3.5 kmh WNW 3.2 mph5.1 kmh 29.93 in1013.5 mb 0.00 in0.0 mm 0.00 in0.0 mm 0.00 in0.0 mm
04:03 AM 74.1°F23.4°C 58.4°F14.7°C 58% 2.7 mph WNW4.3 kmh WNW 3.2 mph5.1 kmh 29.93 in1013.5 mb 0.00 in0.0 mm 0.00 in0.0 mm 0.00 in0.0 mm
04:02 AM 73.9°F23.3°C 58.2°F14.6°C 58% 2.7 mph WNW4.3 kmh WNW 3.2 mph5.1 kmh 29.92 in1013.2 mb 0.00 in0.0 mm 0.00 in0.0 mm 0.00 in0.0 mm
04:01 AM 73.9°F23.3°C 58.2°F14.6°C 58% 2.7 mph N4.3 kmh N 3.2 mph5.1 kmh 29.92 in1013.2 mb 0.00 in0.0 mm 0.00 in0.0 mm 0.00 in0.0 mm
04:00 AM 73.9°F23.3°C 58.7°F14.8°C 59% 2.2 mph NW3.5 kmh NW 2.7 mph4.3 kmh 29.92 in1013.2 mb 0.00 in0.0 mm 0.00 in0.0 mm 0.00 in0.0 mm
03:59 AM 73.8°F23.2°C 58.5°F14.7°C 59% 2.2 mph WNW3.5 kmh WNW 2.7 mph4.3 kmh 29.92 in1013.2 mb 0.00 in0.0 mm 0.00 in0.0 mm 0.00 in0.0 mm
03:58 AM 73.8°F23.2°C 58.5°F14.7°C 59% Calm Calm 2.7 mph4.3 kmh 29.92 in1013.2 mb 0.00 in0.0 mm 0.00 in0.0 mm 0.00 in0.0 mm
03:57 AM 73.8°F23.2°C 58.5°F14.7°C 59% 1.1 mph NNW1.8 kmh NNW 2.7 mph4.3 kmh 29.92 in1013.2 mb 0.00 in0.0 mm 0.00 in0.0 mm 0.00 in0.0 mm
03:56 AM 73.8°F23.2°C 58.5°F14.7°C 59% 1.7 mph NNW2.7 kmh NNW 2.7 mph4.3 kmh 29.92 in1013.2 mb 0.00 in0.0 mm 0.00 in0.0 mm 0.00 in0.0 mm
03:55 AM 73.8°F23.2°C 58.5°F14.7°C 59% 1.7 mph NNW2.7 kmh NNW 2.7 mph4.3 kmh 29.92 in1013.2 mb 0.00 in0.0 mm 0.00 in0.0 mm 0.00 in0.0 mm
03:53 AM 73.8°F23.2°C 58.5°F14.7°C 59% 2.2 mph WNW3.5 kmh WNW 2.7 mph4.3 kmh 29.92 in1013.2 mb 0.00 in0.0 mm 0.00 in0.0 mm 0.00 in0.0 mm
03:52 AM 73.6°F23.1°C 58.4°F14.7°C 59% 2.2 mph NNW3.5 kmh NNW 2.7 mph4.3 kmh 29.92 in1013.2 mb 0.00 in0.0 mm 0.00 in0.0 mm 0.00 in0.0 mm
03:51 AM 73.6°F23.1°C 58.8°F14.9°C 60% 1.7 mph N2.7 kmh N 2.7 mph4.3 kmh 29.92 in1013.2 mb 0.00 in0.0 mm 0.00 in0.0 mm 0.00 in0.0 mm
03:50 AM 73.6°F23.1°C 58.8°F14.9°C 60% 2.2 mph N3.5 kmh N 2.7 mph4.3 kmh 29.93 in1013.5 mb 0.00 in0.0 mm 0.00 in0.0 mm 0.00 in0.0 mm
03:49 AM 73.4°F23.0°C 58.7°F14.8°C 60% 1.7 mph W2.7 kmh W 2.7 mph4.3 kmh 29.93 in1013.5 mb 0.00 in0.0 mm 0.00 in0.0 mm 0.00 in0.0 mm
03:48 AM 73.4°F23.0°C 58.7°F14.8°C 60% 2.7 mph NW4.3 kmh NW 2.7 mph4.3 kmh 29.93 in1013.5 mb 0.00 in0.0 mm 0.00 in0.0 mm 0.00 in0.0 mm
03:47 AM 73.4°F23.0°C 58.7°F14.8°C 60% Calm Calm 2.2 mph3.5 kmh 29.93 in1013.5 mb 0.00 in0.0 mm 0.00 in0.0 mm 0.00 in0.0 mm
03:46 AM 73.4°F23.0°C 58.7°F14.8°C 60% Calm Calm 2.2 mph3.5 kmh 29.93 in1013.5 mb 0.00 in0.0 mm 0.00 in0.0 mm 0.00 in0.0 mm
03:45 AM 73.4°F23.0°C 58.7°F14.8°C 60% Calm Calm 2.2 mph3.5 kmh 29.93 in1013.5 mb 0.00 in0.0 mm 0.00 in0.0 mm 0.00 in0.0 mm
03:44 AM 73.4°F23.0°C 58.7°F14.8°C 60% Calm Calm 2.2 mph3.5 kmh 29.93 in1013.5 mb 0.00 in0.0 mm 0.00 in0.0 mm 0.00 in0.0 mm
03:43 AM 73.6°F23.1°C 58.8°F14.9°C 60% Calm Calm 2.2 mph3.5 kmh 29.93 in1013.5 mb 0.00 in0.0 mm 0.00 in0.0 mm 0.00 in0.0 mm
03:42 AM 73.6°F23.1°C 58.8°F14.9°C 60% 1.1 mph NE1.8 kmh NE 2.2 mph3.5 kmh 29.93 in1013.5 mb 0.00 in0.0 mm 0.00 in0.0 mm 0.00 in0.0 mm
03:41 AM 73.6°F23.1°C 58.8°F14.9°C 60% 2.2 mph N3.5 kmh N 2.2 mph3.5 kmh 29.93 in1013.5 mb 0.00 in0.0 mm 0.00 in0.0 mm 0.00 in0.0 mm
03:40 AM 73.6°F23.1°C 58.8°F14.9°C 60% Calm Calm 2.2 mph3.5 kmh 29.93 in1013.5 mb 0.00 in0.0 mm 0.00 in0.0 mm 0.00 in0.0 mm
03:39 AM 73.8°F23.2°C 59.0°F15.0°C 60% Calm Calm 2.2 mph3.5 kmh 29.93 in1013.5 mb 0.00 in0.0 mm 0.00 in0.0 mm 0.00 in0.0 mm
03:38 AM 73.8°F23.2°C 59.0°F15.0°C 60% Calm Calm 2.2 mph3.5 kmh 29.93 in1013.5 mb 0.00 in0.0 mm 0.00 in0.0 mm 0.00 in0.0 mm
03:37 AM 73.8°F23.2°C 59.0°F15.0°C 60% 1.7 mph NW2.7 kmh NW 2.2 mph3.5 kmh 29.93 in1013.5 mb 0.00 in0.0 mm 0.00 in0.0 mm 0.00 in0.0 mm
03:36 AM 73.8°F23.2°C 59.0°F15.0°C 60% 1.7 mph NW2.7 kmh NW 2.2 mph3.5 kmh 29.93 in1013.5 mb 0.00 in0.0 mm 0.00 in0.0 mm 0.00 in0.0 mm
03:35 AM 73.8°F23.2°C 59.0°F15.0°C 60% 2.2 mph W3.5 kmh W 2.2 mph3.5 kmh 29.93 in1013.5 mb 0.00 in0.0 mm 0.00 in0.0 mm 0.00 in0.0 mm
03:34 AM 73.6°F23.1°C 58.8°F14.9°C 60% 1.7 mph WNW2.7 kmh WNW 2.2 mph3.5 kmh 29.93 in1013.5 mb 0.00 in0.0 mm 0.00 in0.0 mm 0.00 in0.0 mm
03:33 AM 73.6°F23.1°C 58.8°F14.9°C 60% Calm Calm -- 29.93 in1013.5 mb 0.00 in0.0 mm 0.00 in0.0 mm 0.00 in0.0 mm
03:32 AM 73.8°F23.2°C 58.5°F14.7°C 59% Calm Calm 1.1 mph1.8 kmh 29.93 in1013.5 mb 0.00 in0.0 mm 0.00 in0.0 mm 0.00 in0.0 mm
03:31 AM 73.8°F23.2°C 58.5°F14.7°C 59% Calm Calm 1.7 mph2.7 kmh 29.93 in1013.5 mb 0.00 in0.0 mm 0.00 in0.0 mm 0.00 in0.0 mm
03:30 AM 73.8°F23.2°C 58.5°F14.7°C 59% Calm Calm 1.7 mph2.7 kmh 29.93 in1013.5 mb 0.00 in0.0 mm 0.00 in0.0 mm 0.00 in0.0 mm
03:29 AM 73.9°F23.3°C 58.7°F14.8°C 59% Calm Calm 1.7 mph2.7 kmh 29.93 in1013.5 mb 0.00 in0.0 mm 0.00 in0.0 mm 0.00 in0.0 mm
03:28 AM 73.9°F23.3°C 58.7°F14.8°C 59% Calm Calm 1.7 mph2.7 kmh 29.93 in1013.5 mb 0.00 in0.0 mm 0.00 in0.0 mm 0.00 in0.0 mm
03:27 AM 73.9°F23.3°C 58.7°F14.8°C 59% Calm Calm 1.7 mph2.7 kmh 29.93 in1013.5 mb 0.00 in0.0 mm 0.00 in0.0 mm 0.00 in0.0 mm
03:26 AM 74.1°F23.4°C 58.9°F14.9°C 59% Calm Calm 1.7 mph2.7 kmh 29.93 in1013.5 mb 0.00 in0.0 mm 0.00 in0.0 mm 0.00 in0.0 mm
03:25 AM 74.1°F23.4°C 58.9°F14.9°C 59% Calm Calm 1.7 mph2.7 kmh 29.93 in1013.5 mb 0.00 in0.0 mm 0.00 in0.0 mm 0.00 in0.0 mm
03:24 AM 74.1°F23.4°C 58.9°F14.9°C 59% Calm Calm 1.7 mph2.7 kmh 29.93 in1013.5 mb 0.00 in0.0 mm 0.00 in0.0 mm 0.00 in0.0 mm
03:23 AM 74.1°F23.4°C 58.9°F14.9°C 59% Calm Calm 1.7 mph2.7 kmh 29.93 in1013.5 mb 0.00 in0.0 mm 0.00 in0.0 mm 0.00 in0.0 mm
03:22 AM 74.1°F23.4°C 58.9°F14.9°C 59% 1.1 mph WNW1.8 kmh WNW 1.7 mph2.7 kmh 29.93 in1013.5 mb 0.00 in0.0 mm 0.00 in0.0 mm 0.00 in0.0 mm
03:21 AM 74.3°F23.5°C 59.0°F15.0°C 59% Calm Calm 1.7 mph2.7 kmh 29.93 in1013.5 mb 0.00 in0.0 mm 0.00 in0.0 mm 0.00 in0.0 mm
03:20 AM 74.3°F23.5°C 59.0°F15.0°C 59% Calm Calm 1.7 mph2.7 kmh 29.93 in1013.5 mb 0.00 in0.0 mm 0.00 in0.0 mm 0.00 in0.0 mm
03:19 AM 74.3°F23.5°C 59.0°F15.0°C 59% 1.7 mph NNW2.7 kmh NNW 1.7 mph2.7 kmh 29.93 in1013.5 mb 0.00 in0.0 mm 0.00 in0.0 mm 0.00 in0.0 mm
03:18 AM 74.3°F23.5°C 59.0°F15.0°C 59% Calm Calm 1.1 mph1.8 kmh 29.93 in1013.5 mb 0.00 in0.0 mm 0.00 in0.0 mm 0.00 in0.0 mm
03:17 AM 74.3°F23.5°C 58.6°F14.8°C 58% Calm Calm 1.1 mph1.8 kmh 29.93 in1013.5 mb 0.00 in0.0 mm 0.00 in0.0 mm 0.00 in0.0 mm
03:16 AM 74.3°F23.5°C 58.6°F14.8°C 58% Calm Calm 1.1 mph1.8 kmh 29.93 in1013.5 mb 0.00 in0.0 mm 0.00 in0.0 mm 0.00 in0.0 mm
03:15 AM 74.3°F23.5°C 58.6°F14.8°C 58% Calm Calm 1.1 mph1.8 kmh 29.93 in1013.5 mb 0.00 in0.0 mm 0.00 in0.0 mm 0.00 in0.0 mm
03:14 AM 74.5°F23.6°C 58.7°F14.8°C 58% Calm Calm 1.1 mph1.8 kmh 29.93 in1013.5 mb 0.00 in0.0 mm 0.00 in0.0 mm 0.00 in0.0 mm
03:13 AM 74.5°F23.6°C 58.7°F14.8°C 58% Calm Calm 1.1 mph1.8 kmh 29.92 in1013.2 mb 0.00 in0.0 mm 0.00 in0.0 mm 0.00 in0.0 mm
03:12 AM 74.5°F23.6°C 58.7°F14.8°C 58% Calm Calm 1.1 mph1.8 kmh 29.92 in1013.2 mb 0.00 in0.0 mm 0.00 in0.0 mm 0.00 in0.0 mm
03:11 AM 74.5°F23.6°C 58.7°F14.8°C 58% 1.1 mph W1.8 kmh W 1.1 mph1.8 kmh 29.92 in1013.2 mb 0.00 in0.0 mm 0.00 in0.0 mm 0.00 in0.0 mm
03:10 AM 74.7°F23.7°C 58.9°F14.9°C 58% 1.1 mph N1.8 kmh N 1.1 mph1.8 kmh 29.92 in1013.2 mb 0.00 in0.0 mm 0.00 in0.0 mm 0.00 in0.0 mm
03:09 AM 74.7°F23.7°C 58.9°F14.9°C 58% Calm Calm 1.1 mph1.8 kmh 29.92 in1013.2 mb 0.00 in0.0 mm 0.00 in0.0 mm 0.00 in0.0 mm
03:08 AM 74.7°F23.7°C 58.9°F14.9°C 58% Calm Calm 1.1 mph1.8 kmh 29.92 in1013.2 mb 0.00 in0.0 mm 0.00 in0.0 mm 0.00 in0.0 mm
03:07 AM 74.7°F23.7°C 58.9°F14.9°C 58% 1.1 mph NNW1.8 kmh NNW 1.7 mph2.7 kmh 29.92 in1013.2 mb 0.00 in0.0 mm 0.00 in0.0 mm 0.00 in0.0 mm
03:06 AM 74.7°F23.7°C 58.9°F14.9°C 58% 1.1 mph NNW1.8 kmh NNW 2.7 mph4.3 kmh 29.92 in1013.2 mb 0.00 in0.0 mm 0.00 in0.0 mm 0.00 in0.0 mm
03:05 AM 74.8°F23.8°C 59.5°F15.3°C 59% Calm Calm 2.7 mph4.3 kmh 29.92 in1013.2 mb 0.00 in0.0 mm 0.00 in0.0 mm 0.00 in0.0 mm
03:04 AM 74.8°F23.8°C 59.5°F15.3°C 59% Calm Calm 2.7 mph4.3 kmh 29.92 in1013.2 mb 0.00 in0.0 mm 0.00 in0.0 mm 0.00 in0.0 mm
03:03 AM 74.8°F23.8°C 59.5°F15.3°C 59% Calm Calm 2.7 mph4.3 kmh 29.92 in1013.2 mb 0.00 in0.0 mm 0.00 in0.0 mm 0.00 in0.0 mm
03:02 AM 74.8°F23.8°C 59.1°F15.1°C 58% Calm Calm 2.7 mph4.3 kmh 29.92 in1013.2 mb 0.00 in0.0 mm 0.00 in0.0 mm 0.00 in0.0 mm
03:01 AM 74.8°F23.8°C 59.1°F15.1°C 58% Calm Calm 4.2 mph6.8 kmh 29.92 in1013.2 mb 0.00 in0.0 mm 0.00 in0.0 mm 0.00 in0.0 mm
03:00 AM 74.8°F23.8°C 59.1°F15.1°C 58% 1.1 mph NNW1.8 kmh NNW 4.2 mph6.8 kmh 29.92 in1013.2 mb 0.00 in0.0 mm 0.00 in0.0 mm 0.00 in0.0 mm
02:59 AM 74.8°F23.8°C 59.1°F15.1°C 58% Calm Calm 4.2 mph6.8 kmh 29.92 in1013.2 mb 0.00 in0.0 mm 0.00 in0.0 mm 0.00 in0.0 mm
02:58 AM 74.8°F23.8°C 59.1°F15.1°C 58% 1.7 mph WNW2.7 kmh WNW 4.2 mph6.8 kmh 29.92 in1013.2 mb 0.00 in0.0 mm 0.00 in0.0 mm 0.00 in0.0 mm
02:57 AM 74.8°F23.8°C 59.1°F15.1°C 58% 1.7 mph NNW2.7 kmh NNW 4.2 mph6.8 kmh 29.92 in1013.2 mb 0.00 in0.0 mm 0.00 in0.0 mm 0.00 in0.0 mm
02:56 AM 75.0°F23.9°C 59.2°F15.1°C 58% 1.1 mph NNW1.8 kmh NNW 4.2 mph6.8 kmh 29.92 in1013.2 mb 0.00 in0.0 mm 0.00 in0.0 mm 0.00 in0.0 mm
02:55 AM 75.0°F23.9°C 59.2°F15.1°C 58% 1.1 mph NNW1.8 kmh NNW 4.2 mph6.8 kmh 29.92 in1013.2 mb 0.00 in0.0 mm 0.00 in0.0 mm 0.00 in0.0 mm
02:54 AM 75.0°F23.9°C 59.2°F15.1°C 58% 1.1 mph NNE1.8 kmh NNE 4.2 mph6.8 kmh 29.92 in1013.2 mb 0.00 in0.0 mm 0.00 in0.0 mm 0.00 in0.0 mm
02:53 AM 75.0°F23.9°C 59.2°F15.1°C 58% 2.2 mph NNW3.5 kmh NNW 4.2 mph6.8 kmh 29.92 in1013.2 mb 0.00 in0.0 mm 0.00 in0.0 mm 0.00 in0.0 mm
02:52 AM 75.0°F23.9°C 59.2°F15.1°C 58% 2.2 mph NNE3.5 kmh NNE 4.2 mph6.8 kmh 29.92 in1013.2 mb 0.00 in0.0 mm 0.00 in0.0 mm 0.00 in0.0 mm
02:51 AM 75.0°F23.9°C 59.2°F15.1°C 58% Calm Calm 2.7 mph4.3 kmh 29.92 in1013.2 mb 0.00 in0.0 mm 0.00 in0.0 mm 0.00 in0.0 mm
02:50 AM 75.2°F24.0°C 59.4°F15.2°C 58% 1.1 mph N1.8 kmh N 2.7 mph4.3 kmh 29.93 in1013.5 mb 0.00 in0.0 mm 0.00 in0.0 mm 0.00 in0.0 mm
02:49 AM 75.2°F24.0°C 59.4°F15.2°C 58% 1.7 mph NNE2.7 kmh NNE 2.7 mph4.3 kmh 29.93 in1013.5 mb 0.00 in0.0 mm 0.00 in0.0 mm 0.00 in0.0 mm
02:48 AM 75.2°F24.0°C 59.4°F15.2°C 58% 2.2 mph NNE3.5 kmh NNE 2.7 mph4.3 kmh 29.93 in1013.5 mb 0.00 in0.0 mm 0.00 in0.0 mm 0.00 in0.0 mm
02:47 AM 75.2°F24.0°C 59.4°F15.2°C 58% 1.1 mph NNW1.8 kmh NNW 2.7 mph4.3 kmh 29.93 in1013.5 mb 0.00 in0.0 mm 0.00 in0.0 mm 0.00 in0.0 mm
02:46 AM 75.2°F24.0°C 59.4°F15.2°C 58% 2.2 mph N3.5 kmh N 2.7 mph4.3 kmh 29.93 in1013.5 mb 0.00 in0.0 mm 0.00 in0.0 mm 0.00 in0.0 mm
02:45 AM 75.2°F24.0°C 59.4°F15.2°C 58% 1.7 mph NNW2.7 kmh NNW 3.2 mph5.1 kmh 29.93 in1013.5 mb 0.00 in0.0 mm 0.00 in0.0 mm 0.00 in0.0 mm
02:44 AM 75.2°F24.0°C 59.4°F15.2°C 58% 2.7 mph NW4.3 kmh NW 3.2 mph5.1 kmh 29.93 in1013.5 mb 0.00 in0.0 mm 0.00 in0.0 mm 0.00 in0.0 mm
02:43 AM 75.2°F24.0°C 59.4°F15.2°C 58% 1.7 mph NW2.7 kmh NW 3.2 mph5.1 kmh 29.93 in1013.5 mb 0.00 in0.0 mm 0.00 in0.0 mm 0.00 in0.0 mm
02:42 AM 75.4°F24.1°C 59.6°F15.3°C 58% 2.2 mph NW3.5 kmh NW 3.2 mph5.1 kmh 29.93 in1013.5 mb 0.00 in0.0 mm 0.00 in0.0 mm 0.00 in0.0 mm
02:41 AM 75.4°F24.1°C 59.6°F15.3°C 58% 2.2 mph NNW3.5 kmh NNW 3.2 mph5.1 kmh 29.93 in1013.5 mb 0.00 in0.0 mm 0.00 in0.0 mm 0.00 in0.0 mm
02:40 AM 75.4°F24.1°C 59.6°F15.3°C 58% 2.2 mph NNW3.5 kmh NNW 3.2 mph5.1 kmh 29.93 in1013.5 mb 0.00 in0.0 mm 0.00 in0.0 mm 0.00 in0.0 mm
02:39 AM 75.4°F24.1°C 59.6°F15.3°C 58% 1.1 mph NE1.8 kmh NE 3.2 mph5.1 kmh 29.93 in1013.5 mb 0.00 in0.0 mm 0.00 in0.0 mm 0.00 in0.0 mm
02:38 AM 75.4°F24.1°C 59.1°F15.1°C 57% 1.1 mph ENE1.8 kmh ENE 3.2 mph5.1 kmh 29.92 in1013.2 mb 0.00 in0.0 mm 0.00 in0.0 mm 0.00 in0.0 mm
02:37 AM 75.4°F24.1°C 59.1°F15.1°C 57% 2.7 mph N4.3 kmh N 3.7 mph6.0 kmh 29.92 in1013.2 mb 0.00 in0.0 mm 0.00 in0.0 mm 0.00 in0.0 mm
02:36 AM 75.4°F24.1°C 59.1°F15.1°C 57% 2.7 mph N4.3 kmh N 3.7 mph6.0 kmh 29.92 in1013.2 mb 0.00 in0.0 mm 0.00 in0.0 mm 0.00 in0.0 mm
02:35 AM 75.6°F24.2°C 59.2°F15.1°C 57% 1.1 mph NNE1.8 kmh NNE 3.7 mph6.0 kmh 29.92 in1013.2 mb 0.00 in0.0 mm 0.00 in0.0 mm 0.00 in0.0 mm
02:34 AM 75.6°F24.2°C 59.2°F15.1°C 57% 1.7 mph NNE2.7 kmh NNE 3.7 mph6.0 kmh 29.92 in1013.2 mb 0.00 in0.0 mm 0.00 in0.0 mm 0.00 in0.0 mm
02:33 AM 75.6°F24.2°C 59.2°F15.1°C 57% 1.7 mph NNE2.7 kmh NNE 3.7 mph6.0 kmh 29.92 in1013.2 mb 0.00 in0.0 mm 0.00 in0.0 mm 0.00 in0.0 mm
02:32 AM 75.6°F24.2°C 59.2°F15.1°C 57% 2.7 mph NNE4.3 kmh NNE 3.7 mph6.0 kmh 29.92 in1013.2 mb 0.00 in0.0 mm 0.00 in0.0 mm 0.00 in0.0 mm
02:31 AM 75.6°F24.2°C 59.2°F15.1°C 57% 2.7 mph NNE4.3 kmh NNE 4.2 mph6.8 kmh 29.92 in1013.2 mb 0.00 in0.0 mm 0.00 in0.0 mm 0.00 in0.0 mm
02:30 AM 75.6°F24.2°C 59.2°F15.1°C 57% 1.7 mph NW2.7 kmh NW 4.2 mph6.8 kmh 29.92 in1013.2 mb 0.00 in0.0 mm 0.00 in0.0 mm 0.00 in0.0 mm
02:29 AM 75.6°F24.2°C 59.2°F15.1°C 57% 1.7 mph N2.7 kmh N 4.2 mph6.8 kmh 29.92 in1013.2 mb 0.00 in0.0 mm 0.00 in0.0 mm 0.00 in0.0 mm
02:28 AM 75.6°F24.2°C 59.2°F15.1°C 57% 1.7 mph NW2.7 kmh NW 4.2 mph6.8 kmh 29.92 in1013.2 mb 0.00 in0.0 mm 0.00 in0.0 mm 0.00 in0.0 mm
02:27 AM 75.6°F24.2°C 59.2°F15.1°C 57% 3.7 mph N6.0 kmh N 4.2 mph6.8 kmh 29.92 in1013.2 mb 0.00 in0.0 mm 0.00 in0.0 mm 0.00 in0.0 mm
02:26 AM 75.6°F24.2°C 59.2°F15.1°C 57% 2.7 mph N4.3 kmh N 4.2 mph6.8 kmh 29.92 in1013.2 mb 0.00 in0.0 mm 0.00 in0.0 mm 0.00 in0.0 mm
02:25 AM 75.6°F24.2°C 59.7°F15.4°C 58% 3.2 mph N5.1 kmh N 4.2 mph6.8 kmh 29.92 in1013.2 mb 0.00 in0.0 mm 0.00 in0.0 mm 0.00 in0.0 mm
02:24 AM 75.6°F24.2°C 59.7°F15.4°C 58% 2.7 mph N4.3 kmh N 4.2 mph6.8 kmh 29.92 in1013.2 mb 0.00 in0.0 mm 0.00 in0.0 mm 0.00 in0.0 mm
02:23 AM 75.6°F24.2°C 59.7°F15.4°C 58% 2.7 mph NNW4.3 kmh NNW 4.2 mph6.8 kmh 29.92 in1013.2 mb 0.00 in0.0 mm 0.00 in0.0 mm 0.00 in0.0 mm
02:22 AM 75.6°F24.2°C 59.7°F15.4°C 58% 3.2 mph NNE5.1 kmh NNE 4.2 mph6.8 kmh 29.92 in1013.2 mb 0.00 in0.0 mm 0.00 in0.0 mm 0.00 in0.0 mm
02:21 AM 75.6°F24.2°C 59.7°F15.4°C 58% 1.7 mph NNE2.7 kmh NNE 3.7 mph6.0 kmh 29.92 in1013.2 mb 0.00 in0.0 mm 0.00 in0.0 mm 0.00 in0.0 mm
02:20 AM 75.6°F24.2°C 59.7°F15.4°C 58% 2.2 mph W3.5 kmh W 3.7 mph6.0 kmh 29.92 in1013.2 mb 0.00 in0.0 mm 0.00 in0.0 mm 0.00 in0.0 mm
02:19 AM 75.6°F24.2°C 59.7°F15.4°C 58% 3.7 mph NNW6.0 kmh NNW 3.7 mph6.0 kmh 29.92 in1013.2 mb 0.00 in0.0 mm 0.00 in0.0 mm 0.00 in0.0 mm
02:18 AM 75.6°F24.2°C 59.7°F15.4°C 58% 1.1 mph NNW1.8 kmh NNW 3.2 mph5.1 kmh 29.92 in1013.2 mb 0.00 in0.0 mm 0.00 in0.0 mm 0.00 in0.0 mm
02:17 AM 75.6°F24.2°C 59.7°F15.4°C 58% 1.1 mph NNE1.8 kmh NNE 3.2 mph5.1 kmh 29.92 in1013.2 mb 0.00 in0.0 mm 0.00 in0.0 mm 0.00 in0.0 mm
02:16 AM 75.6°F24.2°C 59.7°F15.4°C 58% 1.7 mph NNE2.7 kmh NNE 3.2 mph5.1 kmh 29.92 in1013.2 mb 0.00 in0.0 mm 0.00 in0.0 mm 0.00 in0.0 mm
02:15 AM 75.6°F24.2°C 59.7°F15.4°C 58% 2.2 mph NNW3.5 kmh NNW 3.2 mph5.1 kmh 29.92 in1013.2 mb 0.00 in0.0 mm 0.00 in0.0 mm 0.00 in0.0 mm
02:14 AM 75.6°F24.2°C 59.7°F15.4°C 58% 2.2 mph NE3.5 kmh NE 3.2 mph5.1 kmh 29.92 in1013.2 mb 0.00 in0.0 mm 0.00 in0.0 mm 0.00 in0.0 mm
02:13 AM 75.6°F24.2°C 59.7°F15.4°C 58% 3.2 mph NNE5.1 kmh NNE 3.2 mph5.1 kmh 29.92 in1013.2 mb 0.00 in0.0 mm 0.00 in0.0 mm 0.00 in0.0 mm
02:12 AM 75.6°F24.2°C 59.7°F15.4°C 58% 2.7 mph NNE4.3 kmh NNE 3.2 mph5.1 kmh 29.92 in1013.2 mb 0.00 in0.0 mm 0.00 in0.0 mm 0.00 in0.0 mm
02:11 AM 75.7°F24.3°C 59.9°F15.5°C 58% 2.2 mph NNW3.5 kmh NNW 3.2 mph5.1 kmh 29.92 in1013.2 mb 0.00 in0.0 mm 0.00 in0.0 mm 0.00 in0.0 mm
02:10 AM 75.7°F24.3°C 59.9°F15.5°C 58% 1.7 mph N2.7 kmh N 3.2 mph5.1 kmh 29.92 in1013.2 mb 0.00 in0.0 mm 0.00 in0.0 mm 0.00 in0.0 mm
02:09 AM 75.7°F24.3°C 59.9°F15.5°C 58% 1.7 mph N2.7 kmh N 3.2 mph5.1 kmh 29.92 in1013.2 mb 0.00 in0.0 mm 0.00 in0.0 mm 0.00 in0.0 mm
02:08 AM 75.7°F24.3°C 59.9°F15.5°C 58% 2.7 mph NNE4.3 kmh NNE 3.2 mph5.1 kmh 29.92 in1013.2 mb 0.00 in0.0 mm 0.00 in0.0 mm 0.00 in0.0 mm
02:07 AM 75.7°F24.3°C 59.9°F15.5°C 58% 2.7 mph NNE4.3 kmh NNE 3.2 mph5.1 kmh 29.92 in1013.2 mb 0.00 in0.0 mm 0.00 in0.0 mm 0.00 in0.0 mm
02:06 AM 75.7°F24.3°C 59.9°F15.5°C 58% 2.2 mph NNW3.5 kmh NNW 3.2 mph5.1 kmh 29.92 in1013.2 mb 0.00 in0.0 mm 0.00 in0.0 mm 0.00 in0.0 mm
02:05 AM 75.7°F24.3°C 59.9°F15.5°C 58% 1.7 mph N2.7 kmh N 3.2 mph5.1 kmh 29.92 in1013.2 mb 0.00 in0.0 mm 0.00 in0.0 mm 0.00 in0.0 mm
02:04 AM 75.7°F24.3°C 59.9°F15.5°C 58% 2.7 mph NNE4.3 kmh NNE 3.2 mph5.1 kmh 29.92 in1013.2 mb 0.00 in0.0 mm 0.00 in0.0 mm 0.00 in0.0 mm
02:03 AM 75.7°F24.3°C 59.9°F15.5°C 58% 2.7 mph NNW4.3 kmh NNW 3.2 mph5.1 kmh 29.92 in1013.2 mb 0.00 in0.0 mm 0.00 in0.0 mm 0.00 in0.0 mm
02:02 AM 75.7°F24.3°C 59.9°F15.5°C 58% 2.7 mph NW4.3 kmh NW 3.2 mph5.1 kmh 29.92 in1013.2 mb 0.00 in0.0 mm 0.00 in0.0 mm 0.00 in0.0 mm
02:01 AM 75.7°F24.3°C 59.9°F15.5°C 58% 2.2 mph NNW3.5 kmh NNW 3.2 mph5.1 kmh 29.92 in1013.2 mb 0.00 in0.0 mm 0.00 in0.0 mm 0.00 in0.0 mm
02:00 AM 75.7°F24.3°C 59.9°F15.5°C 58% 1.1 mph W1.8 kmh W 3.2 mph5.1 kmh 29.92 in1013.2 mb 0.00 in0.0 mm 0.00 in0.0 mm 0.00 in0.0 mm
01:59 AM 75.7°F24.3°C 59.9°F15.5°C 58% 1.7 mph NNW2.7 kmh NNW 3.2 mph5.1 kmh 29.92 in1013.2 mb 0.00 in0.0 mm 0.00 in0.0 mm 0.00 in0.0 mm
01:58 AM 75.7°F24.3°C 59.9°F15.5°C 58% 2.2 mph W3.5 kmh W 3.2 mph5.1 kmh 29.92 in1013.2 mb 0.00 in0.0 mm 0.00 in0.0 mm 0.00 in0.0 mm
01:57 AM 75.7°F24.3°C 59.9°F15.5°C 58% 2.7 mph N4.3 kmh N 3.2 mph5.1 kmh 29.92 in1013.2 mb 0.00 in0.0 mm 0.00 in0.0 mm 0.00 in0.0 mm
01:56 AM 75.7°F24.3°C 59.9°F15.5°C 58% 2.7 mph NNW4.3 kmh NNW 3.2 mph5.1 kmh 29.92 in1013.2 mb 0.00 in0.0 mm 0.00 in0.0 mm 0.00 in0.0 mm
01:55 AM 75.7°F24.3°C 59.9°F15.5°C 58% 3.2 mph N5.1 kmh N 3.2 mph5.1 kmh 29.92 in1013.2 mb 0.00 in0.0 mm 0.00 in0.0 mm 0.00 in0.0 mm
01:54 AM 75.9°F24.4°C 60.1°F15.6°C 58% 1.7 mph N2.7 kmh N 2.7 mph4.3 kmh 29.92 in1013.2 mb 0.00 in0.0 mm 0.00 in0.0 mm 0.00 in0.0 mm
01:53 AM 75.9°F24.4°C 60.1°F15.6°C 58% 2.7 mph WNW4.3 kmh WNW 2.7 mph4.3 kmh 29.92 in1013.2 mb 0.00 in0.0 mm 0.00 in0.0 mm 0.00 in0.0 mm
01:52 AM 75.9°F24.4°C 60.1°F15.6°C 58% 1.1 mph NE1.8 kmh NE 2.7 mph4.3 kmh 29.92 in1013.2 mb 0.00 in0.0 mm 0.00 in0.0 mm 0.00 in0.0 mm
01:51 AM 75.9°F24.4°C 60.1°F15.6°C 58% 2.2 mph N3.5 kmh N 2.7 mph4.3 kmh 29.92 in1013.2 mb 0.00 in0.0 mm 0.00 in0.0 mm 0.00 in0.0 mm
01:50 AM 76.1°F24.5°C 60.7°F15.9°C 59% 1.7 mph NE2.7 kmh NE 2.7 mph4.3 kmh 29.92 in1013.2 mb 0.00 in0.0 mm 0.00 in0.0 mm 0.00 in0.0 mm
01:49 AM 76.1°F24.5°C 60.7°F15.9°C 59% 1.7 mph NE2.7 kmh NE 3.7 mph6.0 kmh 29.92 in1013.2 mb 0.00 in0.0 mm 0.00 in0.0 mm 0.00 in0.0 mm
01:48 AM 76.1°F24.5°C 60.7°F15.9°C 59% 1.7 mph NNE2.7 kmh NNE 4.2 mph6.8 kmh 29.92 in1013.2 mb 0.00 in0.0 mm 0.00 in0.0 mm 0.00 in0.0 mm
01:47 AM 76.3°F24.6°C 60.9°F16.1°C 59% 1.7 mph N2.7 kmh N 4.2 mph6.8 kmh 29.92 in1013.2 mb 0.00 in0.0 mm 0.00 in0.0 mm 0.00 in0.0 mm
01:46 AM 76.3°F24.6°C 60.9°F16.1°C 59% 1.1 mph N1.8 kmh N 4.2 mph6.8 kmh 29.92 in1013.2 mb 0.00 in0.0 mm 0.00 in0.0 mm 0.00 in0.0 mm
01:45 AM 76.3°F24.6°C 60.9°F16.1°C 59% Calm Calm 4.2 mph6.8 kmh 29.92 in1013.2 mb 0.00 in0.0 mm 0.00 in0.0 mm 0.00 in0.0 mm
01:44 AM 76.3°F24.6°C 60.9°F16.1°C 59% Calm Calm 4.2 mph6.8 kmh 29.92 in1013.2 mb 0.00 in0.0 mm 0.00 in0.0 mm 0.00 in0.0 mm
01:43 AM 76.3°F24.6°C 60.9°F16.1°C 59% 1.1 mph N1.8 kmh N 4.2 mph6.8 kmh 29.92 in1013.2 mb 0.00 in0.0 mm 0.00 in0.0 mm 0.00 in0.0 mm
01:42 AM 76.3°F24.6°C 60.9°F16.1°C 59% Calm Calm 4.2 mph6.8 kmh 29.92 in1013.2 mb 0.00 in0.0 mm 0.00 in0.0 mm 0.00 in0.0 mm
01:41 AM 76.3°F24.6°C 60.9°F16.1°C 59% 1.7 mph NNW2.7 kmh NNW 4.2 mph6.8 kmh 29.92 in1013.2 mb 0.00 in0.0 mm 0.00 in0.0 mm 0.00 in0.0 mm
01:40 AM 76.3°F24.6°C 60.9°F16.1°C 59% 2.7 mph N4.3 kmh N 4.2 mph6.8 kmh 29.92 in1013.2 mb 0.00 in0.0 mm 0.00 in0.0 mm 0.00 in0.0 mm
01:39 AM 76.3°F24.6°C 60.9°F16.1°C 59% 2.7 mph NNE4.3 kmh NNE 4.2 mph6.8 kmh 29.92 in1013.2 mb 0.00 in0.0 mm 0.00 in0.0 mm 0.00 in0.0 mm
01:38 AM 76.3°F24.6°C 60.9°F16.1°C 59% 2.7 mph N4.3 kmh N 3.7 mph6.0 kmh 29.92 in1013.2 mb 0.00 in0.0 mm 0.00 in0.0 mm 0.00 in0.0 mm
01:37 AM 76.3°F24.6°C 60.9°F16.1°C 59% 3.7 mph NNE6.0 kmh NNE 3.7 mph6.0 kmh 29.92 in1013.2 mb 0.00 in0.0 mm 0.00 in0.0 mm 0.00 in0.0 mm
01:36 AM 76.3°F24.6°C 60.9°F16.1°C 59% 3.2 mph NW5.1 kmh NW 3.7 mph6.0 kmh 29.92 in1013.2 mb 0.00 in0.0 mm 0.00 in0.0 mm 0.00 in0.0 mm
01:35 AM 76.3°F24.6°C 60.9°F16.1°C 59% 3.2 mph NNE5.1 kmh NNE 3.7 mph6.0 kmh 29.92 in1013.2 mb 0.00 in0.0 mm 0.00 in0.0 mm 0.00 in0.0 mm
01:34 AM 76.3°F24.6°C 60.9°F16.1°C 59% 2.2 mph NNE3.5 kmh NNE 3.7 mph6.0 kmh 29.92 in1013.2 mb 0.00 in0.0 mm 0.00 in0.0 mm 0.00 in0.0 mm
01:33 AM 76.5°F24.7°C 61.1°F16.2°C 59% 3.2 mph NNW5.1 kmh NNW 3.7 mph6.0 kmh 29.92 in1013.2 mb 0.00 in0.0 mm 0.00 in0.0 mm 0.00 in0.0 mm
01:32 AM 76.5°F24.7°C 61.1°F16.2°C 59% 3.7 mph N6.0 kmh N 3.7 mph6.0 kmh 29.92 in1013.2 mb 0.00 in0.0 mm 0.00 in0.0 mm 0.00 in0.0 mm
01:31 AM 76.5°F24.7°C 61.1°F16.2°C 59% 3.2 mph NW5.1 kmh NW 3.2 mph5.1 kmh 29.92 in1013.2 mb 0.00 in0.0 mm 0.00 in0.0 mm 0.00 in0.0 mm
01:30 AM 76.5°F24.7°C 61.1°F16.2°C 59% 2.7 mph NW4.3 kmh NW 3.7 mph6.0 kmh 29.92 in1013.2 mb 0.00 in0.0 mm 0.00 in0.0 mm 0.00 in0.0 mm
01:29 AM 76.5°F24.7°C 61.1°F16.2°C 59% 2.2 mph NNW3.5 kmh NNW 3.7 mph6.0 kmh 29.92 in1013.2 mb 0.00 in0.0 mm 0.00 in0.0 mm 0.00 in0.0 mm
01:28 AM 76.5°F24.7°C 61.1°F16.2°C 59% Calm Calm 3.7 mph6.0 kmh 29.92 in1013.2 mb 0.00 in0.0 mm 0.00 in0.0 mm 0.00 in0.0 mm
01:27 AM 76.5°F24.7°C 61.1°F16.2°C 59% 1.7 mph NW2.7 kmh NW 3.7 mph6.0 kmh 29.92 in1013.2 mb 0.00 in0.0 mm 0.00 in0.0 mm 0.00 in0.0 mm
01:26 AM 76.5°F24.7°C 61.1°F16.2°C 59% 3.2 mph NNE5.1 kmh NNE 3.7 mph6.0 kmh 29.92 in1013.2 mb 0.00 in0.0 mm 0.00 in0.0 mm 0.00 in0.0 mm
01:25 AM 76.5°F24.7°C 61.1°F16.2°C 59% 2.7 mph NW4.3 kmh NW 3.7 mph6.0 kmh 29.92 in1013.2 mb 0.00 in0.0 mm 0.00 in0.0 mm 0.00 in0.0 mm
01:24 AM 76.5°F24.7°C 61.1°F16.2°C 59% 2.2 mph N3.5 kmh N 3.7 mph6.0 kmh 29.92 in1013.2 mb 0.00 in0.0 mm 0.00 in0.0 mm 0.00 in0.0 mm
01:23 AM 76.5°F24.7°C 61.1°F16.2°C 59% 2.7 mph NNW4.3 kmh NNW 3.7 mph6.0 kmh 29.92 in1013.2 mb 0.00 in0.0 mm 0.00 in0.0 mm 0.00 in0.0 mm
01:22 AM 76.5°F24.7°C 61.1°F16.2°C 59% 2.7 mph NNW4.3 kmh NNW 3.7 mph6.0 kmh 29.92 in1013.2 mb 0.00 in0.0 mm 0.00 in0.0 mm 0.00 in0.0 mm
01:21 AM 76.5°F24.7°C 61.1°F16.2°C 59% 2.2 mph NE3.5 kmh NE 3.7 mph6.0 kmh 29.92 in1013.2 mb 0.00 in0.0 mm 0.00 in0.0 mm 0.00 in0.0 mm
01:20 AM 76.5°F24.7°C 61.1°F16.2°C 59% 3.7 mph NNE6.0 kmh NNE 3.7 mph6.0 kmh 29.92 in1013.2 mb 0.00 in0.0 mm 0.00 in0.0 mm 0.00 in0.0 mm
01:19 AM 76.5°F24.7°C 61.1°F16.2°C 59% 1.1 mph N1.8 kmh N 3.7 mph6.0 kmh 29.92 in1013.2 mb 0.00 in0.0 mm 0.00 in0.0 mm 0.00 in0.0 mm
01:18 AM 76.5°F24.7°C 61.1°F16.2°C 59% 2.7 mph W4.3 kmh W 3.7 mph6.0 kmh 29.92 in1013.2 mb 0.00 in0.0 mm 0.00 in0.0 mm 0.00 in0.0 mm
01:17 AM 76.5°F24.7°C 61.1°F16.2°C 59% 2.7 mph NW4.3 kmh NW 3.2 mph5.1 kmh 29.92 in1013.2 mb 0.00 in0.0 mm 0.00 in0.0 mm 0.00 in0.0 mm
01:16 AM 76.5°F24.7°C 61.1°F16.2°C 59% 2.2 mph NNW3.5 kmh NNW 3.2 mph5.1 kmh 29.92 in1013.2 mb 0.00 in0.0 mm 0.00 in0.0 mm 0.00 in0.0 mm
01:15 AM 76.5°F24.7°C 61.1°F16.2°C 59% 2.2 mph NW3.5 kmh NW 3.2 mph5.1 kmh 29.93 in1013.5 mb 0.00 in0.0 mm 0.00 in0.0 mm 0.00 in0.0 mm
01:14 AM 76.5°F24.7°C 61.1°F16.2°C 59% 2.2 mph NNW3.5 kmh NNW 3.7 mph6.0 kmh 29.93 in1013.5 mb 0.00 in0.0 mm 0.00 in0.0 mm 0.00 in0.0 mm
01:13 AM 76.5°F24.7°C 61.1°F16.2°C 59% 2.2 mph NNW3.5 kmh NNW 3.7 mph6.0 kmh 29.93 in1013.5 mb 0.00 in0.0 mm 0.00 in0.0 mm 0.00 in0.0 mm
01:12 AM 76.5°F24.7°C 61.1°F16.2°C 59% 2.7 mph NNW4.3 kmh NNW 3.7 mph6.0 kmh 29.93 in1013.5 mb 0.00 in0.0 mm 0.00 in0.0 mm 0.00 in0.0 mm
01:11 AM 76.5°F24.7°C 61.1°F16.2°C 59% 2.7 mph N4.3 kmh N 3.7 mph6.0 kmh 29.93 in1013.5 mb 0.00 in0.0 mm 0.00 in0.0 mm 0.00 in0.0 mm
01:10 AM 76.5°F24.7°C 60.6°F15.9°C 58% 2.2 mph NNW3.5 kmh NNW 3.7 mph6.0 kmh 29.93 in1013.5 mb 0.00 in0.0 mm 0.00 in0.0 mm 0.00 in0.0 mm
01:09 AM 76.5°F24.7°C 60.6°F15.9°C 58% 2.7 mph NNW4.3 kmh NNW 3.7 mph6.0 kmh 29.93 in1013.5 mb 0.00 in0.0 mm 0.00 in0.0 mm 0.00 in0.0 mm
01:08 AM 76.5°F24.7°C 60.6°F15.9°C 58% 2.7 mph NNW4.3 kmh NNW 3.7 mph6.0 kmh 29.93 in1013.5 mb 0.00 in0.0 mm 0.00 in0.0 mm 0.00 in0.0 mm
01:07 AM 76.6°F24.8°C 60.7°F15.9°C 58% 2.7 mph N4.3 kmh N 3.7 mph6.0 kmh 29.93 in1013.5 mb 0.00 in0.0 mm 0.00 in0.0 mm 0.00 in0.0 mm
01:06 AM 76.6°F24.8°C 60.7°F15.9°C 58% 3.2 mph NNW5.1 kmh NNW 3.7 mph6.0 kmh 29.93 in1013.5 mb 0.00 in0.0 mm 0.00 in0.0 mm 0.00 in0.0 mm
01:05 AM 76.6°F24.8°C 60.7°F15.9°C 58% 2.7 mph NNE4.3 kmh NNE 3.7 mph6.0 kmh 29.93 in1013.5 mb 0.00 in0.0 mm 0.00 in0.0 mm 0.00 in0.0 mm
01:04 AM 76.6°F24.8°C 60.7°F15.9°C 58% 3.7 mph N6.0 kmh N 3.7 mph6.0 kmh 29.93 in1013.5 mb 0.00 in0.0 mm 0.00 in0.0 mm 0.00 in0.0 mm
01:03 AM 76.6°F24.8°C 60.7°F15.9°C 58% 1.1 mph NNW1.8 kmh NNW 3.7 mph6.0 kmh 29.93 in1013.5 mb 0.00 in0.0 mm 0.00 in0.0 mm 0.00 in0.0 mm
01:02 AM 76.6°F24.8°C 60.7°F15.9°C 58% 3.2 mph N5.1 kmh N 3.7 mph6.0 kmh 29.93 in1013.5 mb 0.00 in0.0 mm 0.00 in0.0 mm 0.00 in0.0 mm
01:01 AM 76.6°F24.8°C 60.7°F15.9°C 58% 1.7 mph N2.7 kmh N 3.7 mph6.0 kmh 29.93 in1013.5 mb 0.00 in0.0 mm 0.00 in0.0 mm 0.00 in0.0 mm
01:00 AM 76.6°F24.8°C 60.7°F15.9°C 58% 2.7 mph N4.3 kmh N 3.7 mph6.0 kmh 29.93 in1013.5 mb 0.00 in0.0 mm 0.00 in0.0 mm 0.00 in0.0 mm
12:59 AM 76.8°F24.9°C 60.9°F16.1°C 58% 1.7 mph NNE2.7 kmh NNE 3.7 mph6.0 kmh 29.93 in1013.5 mb 0.00 in0.0 mm 0.00 in0.0 mm 0.00 in0.0 mm
12:58 AM 76.8°F24.9°C 60.9°F16.1°C 58% 2.7 mph NNE4.3 kmh NNE 3.7 mph6.0 kmh 29.93 in1013.5 mb 0.00 in0.0 mm 0.00 in0.0 mm 0.00 in0.0 mm
12:57 AM 76.8°F24.9°C 60.9°F16.1°C 58% 3.2 mph NNE5.1 kmh NNE 3.7 mph6.0 kmh 29.93 in1013.5 mb 0.00 in0.0 mm 0.00 in0.0 mm 0.00 in0.0 mm
12:56 AM 76.8°F24.9°C 60.9°F16.1°C 58% 2.7 mph NNW4.3 kmh NNW 3.2 mph5.1 kmh 29.93 in1013.5 mb 0.00 in0.0 mm 0.00 in0.0 mm 0.00 in0.0 mm
12:55 AM 77.0°F25.0°C 61.1°F16.2°C 58% 1.7 mph N2.7 kmh N 2.7 mph4.3 kmh 29.93 in1013.5 mb 0.00 in0.0 mm 0.00 in0.0 mm 0.00 in0.0 mm
12:54 AM 77.0°F25.0°C 61.1°F16.2°C 58% 1.7 mph NW2.7 kmh NW 2.7 mph4.3 kmh 29.93 in1013.5 mb 0.00 in0.0 mm 0.00 in0.0 mm 0.00 in0.0 mm
12:53 AM 77.0°F25.0°C 61.1°F16.2°C 58% Calm Calm 2.7 mph4.3 kmh 29.93 in1013.5 mb 0.00 in0.0 mm 0.00 in0.0 mm 0.00 in0.0 mm
12:52 AM 77.0°F25.0°C 61.1°F16.2°C 58% Calm Calm 2.7 mph4.3 kmh 29.93 in1013.5 mb 0.00 in0.0 mm 0.00 in0.0 mm 0.00 in0.0 mm
12:51 AM 77.0°F25.0°C 61.1°F16.2°C 58% Calm Calm 2.7 mph4.3 kmh 29.93 in1013.5 mb 0.00 in0.0 mm 0.00 in0.0 mm 0.00 in0.0 mm
12:50 AM 77.0°F25.0°C 61.1°F16.2°C 58% Calm Calm 2.7 mph4.3 kmh 29.93 in1013.5 mb 0.00 in0.0 mm 0.00 in0.0 mm 0.00 in0.0 mm
12:49 AM 77.0°F25.0°C 61.1°F16.2°C 58% Calm Calm 2.7 mph4.3 kmh 29.93 in1013.5 mb 0.00 in0.0 mm 0.00 in0.0 mm 0.00 in0.0 mm
12:48 AM 77.2°F25.1°C 61.2°F16.2°C 58% 2.2 mph NNW3.5 kmh NNW 2.7 mph4.3 kmh 29.93 in1013.5 mb 0.00 in0.0 mm 0.00 in0.0 mm 0.00 in0.0 mm
12:47 AM 77.2°F25.1°C 61.2°F16.2°C 58% 1.7 mph NNE2.7 kmh NNE 2.7 mph4.3 kmh 29.93 in1013.5 mb 0.00 in0.0 mm 0.00 in0.0 mm 0.00 in0.0 mm
12:46 AM 77.2°F25.1°C 61.2°F16.2°C 58% 1.7 mph NW2.7 kmh NW 2.7 mph4.3 kmh 29.93 in1013.5 mb 0.00 in0.0 mm 0.00 in0.0 mm 0.00 in0.0 mm
12:45 AM 77.4°F25.2°C 61.4°F16.3°C 58% Calm Calm 2.7 mph4.3 kmh 29.93 in1013.5 mb 0.00 in0.0 mm 0.00 in0.0 mm 0.00 in0.0 mm
12:44 AM 77.5°F25.3°C 61.6°F16.4°C 58% 1.1 mph NE1.8 kmh NE 2.7 mph4.3 kmh 29.93 in1013.5 mb 0.00 in0.0 mm 0.00 in0.0 mm 0.00 in0.0 mm
12:43 AM 77.5°F25.3°C 61.6°F16.4°C 58% 1.7 mph NE2.7 kmh NE 3.7 mph6.0 kmh 29.93 in1013.5 mb 0.00 in0.0 mm 0.00 in0.0 mm 0.00 in0.0 mm
12:42 AM 77.5°F25.3°C 61.6°F16.4°C 58% 1.7 mph NNW2.7 kmh NNW 3.7 mph6.0 kmh 29.93 in1013.5 mb 0.00 in0.0 mm 0.00 in0.0 mm 0.00 in0.0 mm
12:41 AM 77.5°F25.3°C 61.6°F16.4°C 58% 1.7 mph NW2.7 kmh NW 3.7 mph6.0 kmh 29.93 in1013.5 mb 0.00 in0.0 mm 0.00 in0.0 mm 0.00 in0.0 mm
12:40 AM 77.5°F25.3°C 61.1°F16.2°C 57% 1.7 mph NW2.7 kmh NW 3.7 mph6.0 kmh 29.93 in1013.5 mb 0.00 in0.0 mm 0.00 in0.0 mm 0.00 in0.0 mm
12:39 AM 77.5°F25.3°C 61.1°F16.2°C 57% 1.7 mph NNE2.7 kmh NNE 3.7 mph6.0 kmh 29.93 in1013.5 mb 0.00 in0.0 mm 0.00 in0.0 mm 0.00 in0.0 mm
12:38 AM 77.7°F25.4°C 61.3°F16.3°C 57% 2.2 mph N3.5 kmh N 4.7 mph7.6 kmh 29.93 in1013.5 mb 0.00 in0.0 mm 0.00 in0.0 mm 0.00 in0.0 mm
12:37 AM 77.7°F25.4°C 61.3°F16.3°C 57% 1.7 mph NNW2.7 kmh NNW 4.7 mph7.6 kmh 29.93 in1013.5 mb 0.00 in0.0 mm 0.00 in0.0 mm 0.00 in0.0 mm
12:36 AM 77.7°F25.4°C 61.3°F16.3°C 57% 2.7 mph NNW4.3 kmh NNW 4.7 mph7.6 kmh 29.93 in1013.5 mb 0.00 in0.0 mm 0.00 in0.0 mm 0.00 in0.0 mm
12:35 AM 77.7°F25.4°C 61.3°F16.3°C 57% 2.7 mph NNW4.3 kmh NNW 4.7 mph7.6 kmh 29.93 in1013.5 mb 0.00 in0.0 mm 0.00 in0.0 mm 0.00 in0.0 mm
12:34 AM 77.7°F25.4°C 61.3°F16.3°C 57% 3.7 mph NNE6.0 kmh NNE 4.7 mph7.6 kmh 29.93 in1013.5 mb 0.00 in0.0 mm 0.00 in0.0 mm 0.00 in0.0 mm
12:33 AM 77.9°F25.5°C 61.4°F16.3°C 57% 2.2 mph NNW3.5 kmh NNW 4.7 mph7.6 kmh 29.93 in1013.5 mb 0.00 in0.0 mm 0.00 in0.0 mm 0.00 in0.0 mm
12:32 AM 77.9°F25.5°C 61.4°F16.3°C 57% 2.2 mph N3.5 kmh N 4.7 mph7.6 kmh 29.93 in1013.5 mb 0.00 in0.0 mm 0.00 in0.0 mm 0.00 in0.0 mm
12:31 AM 77.9°F25.5°C 61.4°F16.3°C 57% 2.7 mph WNW4.3 kmh WNW 4.7 mph7.6 kmh 29.93 in1013.5 mb 0.00 in0.0 mm 0.00 in0.0 mm 0.00 in0.0 mm
12:30 AM 77.9°F25.5°C 61.4°F16.3°C 57% 2.7 mph NNE4.3 kmh NNE 4.7 mph7.6 kmh 29.93 in1013.5 mb 0.00 in0.0 mm 0.00 in0.0 mm 0.00 in0.0 mm
12:29 AM 77.9°F25.5°C 61.4°F16.3°C 57% 3.7 mph NW6.0 kmh NW 4.7 mph7.6 kmh 29.93 in1013.5 mb 0.00 in0.0 mm 0.00 in0.0 mm 0.00 in0.0 mm
12:28 AM 77.9°F25.5°C 61.4°F16.3°C 57% 2.7 mph WNW4.3 kmh WNW 4.2 mph6.8 kmh 29.93 in1013.5 mb 0.00 in0.0 mm 0.00 in0.0 mm 0.00 in0.0 mm
12:27 AM 77.9°F25.5°C 61.4°F16.3°C 57% 3.7 mph NNE6.0 kmh NNE 4.7 mph7.6 kmh 29.93 in1013.5 mb 0.00 in0.0 mm 0.00 in0.0 mm 0.00 in0.0 mm
12:26 AM 77.9°F25.5°C 61.4°F16.3°C 57% 1.1 mph NW1.8 kmh NW 4.7 mph7.6 kmh 29.93 in1013.5 mb 0.00 in0.0 mm 0.00 in0.0 mm 0.00 in0.0 mm
12:25 AM 77.9°F25.5°C 60.9°F16.1°C 56% 3.7 mph N6.0 kmh N 4.7 mph7.6 kmh 29.93 in1013.5 mb 0.00 in0.0 mm 0.00 in0.0 mm 0.00 in0.0 mm
12:24 AM 77.9°F25.5°C 60.9°F16.1°C 56% 3.7 mph N6.0 kmh N 4.7 mph7.6 kmh 29.93 in1013.5 mb 0.00 in0.0 mm 0.00 in0.0 mm 0.00 in0.0 mm
12:23 AM 78.1°F25.6°C 61.1°F16.2°C 56% 3.2 mph N5.1 kmh N 4.7 mph7.6 kmh 29.93 in1013.5 mb 0.00 in0.0 mm 0.00 in0.0 mm 0.00 in0.0 mm
12:22 AM 78.1°F25.6°C 61.1°F16.2°C 56% 2.7 mph NNE4.3 kmh NNE 4.7 mph7.6 kmh 29.93 in1013.5 mb 0.00 in0.0 mm 0.00 in0.0 mm 0.00 in0.0 mm
12:21 AM 78.1°F25.6°C 61.1°F16.2°C 56% 1.7 mph N2.7 kmh N 4.7 mph7.6 kmh 29.93 in1013.5 mb 0.00 in0.0 mm 0.00 in0.0 mm 0.00 in0.0 mm
12:20 AM 78.1°F25.6°C 61.1°F16.2°C 56% 2.7 mph NW4.3 kmh NW 4.7 mph7.6 kmh 29.93 in1013.5 mb 0.00 in0.0 mm 0.00 in0.0 mm 0.00 in0.0 mm
12:19 AM 78.1°F25.6°C 61.1°F16.2°C 56% 2.7 mph W4.3 kmh W 4.7 mph7.6 kmh 29.93 in1013.5 mb 0.00 in0.0 mm 0.00 in0.0 mm 0.00 in0.0 mm
12:18 AM 78.3°F25.7°C 61.3°F16.3°C 56% 3.7 mph N6.0 kmh N 4.7 mph7.6 kmh 29.93 in1013.5 mb 0.00 in0.0 mm 0.00 in0.0 mm 0.00 in0.0 mm
12:17 AM 78.3°F25.7°C 61.3°F16.3°C 56% 4.2 mph NNE6.8 kmh NNE 4.7 mph7.6 kmh 29.93 in1013.5 mb 0.00 in0.0 mm 0.00 in0.0 mm 0.00 in0.0 mm
12:16 AM 78.3°F25.7°C 61.3°F16.3°C 56% 2.7 mph NW4.3 kmh NW 4.7 mph7.6 kmh 29.93 in1013.5 mb 0.00 in0.0 mm 0.00 in0.0 mm 0.00 in0.0 mm
12:15 AM 78.3°F25.7°C 61.3°F16.3°C 56% 2.7 mph NNW4.3 kmh NNW 4.7 mph7.6 kmh 29.93 in1013.5 mb 0.00 in0.0 mm 0.00 in0.0 mm 0.00 in0.0 mm
12:14 AM 78.3°F25.7°C 61.3°F16.3°C 56% 2.2 mph WNW3.5 kmh WNW 5.8 mph9.3 kmh 29.92 in1013.2 mb 0.00 in0.0 mm 0.00 in0.0 mm 0.00 in0.0 mm
12:13 AM 78.3°F25.7°C 60.7°F15.9°C 55% 2.2 mph NNE3.5 kmh NNE 5.8 mph9.3 kmh 29.92 in1013.2 mb 0.00 in0.0 mm 0.00 in0.0 mm 0.00 in0.0 mm
12:12 AM 78.3°F25.7°C 60.7°F15.9°C 55% 4.2 mph N6.8 kmh N 5.8 mph9.3 kmh 29.92 in1013.2 mb 0.00 in0.0 mm 0.00 in0.0 mm 0.00 in0.0 mm
12:06 AM 78.6°F25.9°C 60.6°F15.9°C 54% 4.7 mph NNE7.6 kmh NNE 6.3 mph10.1 kmh 29.92 in1013.2 mb 0.00 in0.0 mm 0.00 in0.0 mm 0.00 in0.0 mm
12:05 AM 78.6°F25.9°C 60.6°F15.9°C 54% 5.8 mph NNE9.3 kmh NNE 6.3 mph10.1 kmh 29.92 in1013.2 mb 0.00 in0.0 mm 0.00 in0.0 mm 0.00 in0.0 mm
12:04 AM 78.6°F25.9°C 60.6°F15.9°C 54% 4.2 mph N6.8 kmh N 6.3 mph10.1 kmh 29.92 in1013.2 mb 0.00 in0.0 mm 0.00 in0.0 mm 0.00 in0.0 mm
12:03 AM 78.8°F26.0°C 60.7°F15.9°C 54% 4.7 mph NNW7.6 kmh NNW 6.3 mph10.1 kmh 29.92 in1013.2 mb 0.00 in0.0 mm 0.00 in0.0 mm 0.00 in0.0 mm
12:02 AM 78.8°F26.0°C 60.7°F15.9°C 54% 3.2 mph WNW5.1 kmh WNW 6.3 mph10.1 kmh 29.92 in1013.2 mb 0.00 in0.0 mm 0.00 in0.0 mm 0.00 in0.0 mm
12:01 AM 78.8°F26.0°C 60.7°F15.9°C 54% 4.2 mph WNW6.8 kmh WNW 6.3 mph10.1 kmh 29.92 in1013.2 mb 0.00 in0.0 mm 0.00 in0.0 mm 0.00 in0.0 mm
12:00 AM 78.8°F26.0°C 60.7°F15.9°C 54% 5.3 mph NW8.5 kmh NW 6.3 mph10.1 kmh 29.92 in1013.2 mb 0.00 in0.0 mm 0.00 in0.0 mm 0.00 in0.0 mm